VIR401V OMDB-EGLL
Flight info
| Callsign | VIR401V |
|---|---|
| Flight time | 8h 35m |
| Altitude | 36000 |
| Route | ANVIX L223 TARDI N629 BOTAM Y855 LAKLU Q204 NALKI G652 TOKRA DCT ALROK DCT BOSOB DCT ITRUX Y511 PMA Z712 SIGRO/N0495F380 Z712 WEJ L677 GESON Q777 RASDA DCT OTHON DCT VAXOS DCT RDS UL609 MES DCT FSK DCT DISOR DCT LONTA UL608 DOLEV/N0485F400 DCT SABAD DCT KUBUD DCT SOTOV DCT XEBIX DCT USUDO DCT LIRSU DCT DENUT/N0495F380 L608 COA/N0428F180 L179 SASKI L608 LOGAN |
| Aircraft | A35K/H-SDE2E3GHIJ3J4J5LM1ORWXY/LB1D1 |
Departure
| Time | 2026-04-20 14:15 |
|---|---|
| Airport | Dubai International Airport (OMDB) |
Arrival
| Time | 2026-04-20 22:50 |
|---|---|
| Airport | London Heathrow Airport (EGLL) |
| Time | Latitude | Longitude | Altitude | Speed | Heading |
|---|---|---|---|---|---|
| 2026-04-20 12:50 | 25.25853 | 55.34575 | 27 ft | 0 kts | 211° |
| 2026-04-20 12:50 | 25.25850 | 55.34567 | 27 ft | 0 kts | 211° |
| 2026-04-20 13:58 | 25.25861 | 55.34575 | 26 ft | 4 kts | 211° |
| 2026-04-20 13:58 | 25.25884 | 55.34590 | 26 ft | 4 kts | 211° |
| 2026-04-20 13:59 | 25.25904 | 55.34604 | 25 ft | 2 kts | 211° |
| 2026-04-20 13:59 | 25.25926 | 55.34614 | 25 ft | 4 kts | 173° |
| 2026-04-20 13:59 | 25.25945 | 55.34602 | 25 ft | 3 kts | 122° |
| 2026-04-20 13:59 | 25.25959 | 55.34578 | 24 ft | 4 kts | 121° |
| 2026-04-20 14:00 | 25.25964 | 55.34569 | 24 ft | 0 kts | 121° |
| 2026-04-20 14:04 | 25.25962 | 55.34572 | 27 ft | 2 kts | 121° |
| 2026-04-20 14:05 | 25.25945 | 55.34602 | 29 ft | 6 kts | 121° |
| 2026-04-20 14:05 | 25.25918 | 55.34651 | 27 ft | 8 kts | 121° |
| 2026-04-20 14:05 | 25.25890 | 55.34701 | 27 ft | 7 kts | 121° |
| 2026-04-20 14:05 | 25.25861 | 55.34753 | 27 ft | 9 kts | 121° |
| 2026-04-20 14:06 | 25.25826 | 55.34816 | 27 ft | 11 kts | 121° |
| 2026-04-20 14:06 | 25.25784 | 55.34890 | 27 ft | 12 kts | 122° |
| 2026-04-20 14:06 | 25.25749 | 55.34955 | 27 ft | 9 kts | 111° |
| 2026-04-20 14:06 | 25.25773 | 55.35009 | 27 ft | 9 kts | 40° |
| 2026-04-20 14:07 | 25.25829 | 55.35048 | 29 ft | 10 kts | 31° |
| 2026-04-20 14:07 | 25.25896 | 55.35092 | 27 ft | 12 kts | 31° |
| 2026-04-20 14:07 | 25.25972 | 55.35142 | 27 ft | 13 kts | 31° |
| 2026-04-20 14:07 | 25.26055 | 55.35199 | 28 ft | 15 kts | 32° |
| 2026-04-20 14:08 | 25.26119 | 55.35246 | 28 ft | 6 kts | 43° |
| 2026-04-20 14:08 | 25.26128 | 55.35289 | 28 ft | 8 kts | 94° |
| 2026-04-20 14:08 | 25.26091 | 55.35375 | 28 ft | 17 kts | 122° |
| 2026-04-20 14:08 | 25.26016 | 55.35507 | 27 ft | 21 kts | 122° |
| 2026-04-20 14:09 | 25.25936 | 55.35649 | 27 ft | 22 kts | 122° |
| 2026-04-20 14:09 | 25.25852 | 55.35799 | 28 ft | 23 kts | 122° |
| 2026-04-20 14:09 | 25.25766 | 55.35953 | 28 ft | 24 kts | 122° |
| 2026-04-20 14:09 | 25.25676 | 55.36113 | 28 ft | 25 kts | 122° |
| 2026-04-20 14:10 | 25.25583 | 55.36277 | 28 ft | 26 kts | 122° |
| 2026-04-20 14:10 | 25.25487 | 55.36449 | 28 ft | 27 kts | 122° |
| 2026-04-20 14:10 | 25.25387 | 55.36626 | 27 ft | 28 kts | 122° |
| 2026-04-20 14:10 | 25.25285 | 55.36809 | 28 ft | 28 kts | 122° |
| 2026-04-20 14:11 | 25.25179 | 55.36996 | 28 ft | 29 kts | 122° |
| 2026-04-20 14:11 | 25.25074 | 55.37184 | 29 ft | 29 kts | 122° |
| 2026-04-20 14:11 | 25.24966 | 55.37375 | 29 ft | 29 kts | 122° |
| 2026-04-20 14:11 | 25.24857 | 55.37570 | 29 ft | 30 kts | 122° |
| 2026-04-20 14:12 | 25.24754 | 55.37751 | 29 ft | 26 kts | 122° |
| 2026-04-20 14:12 | 25.24679 | 55.37884 | 28 ft | 18 kts | 122° |
| 2026-04-20 14:12 | 25.24628 | 55.37972 | 29 ft | 9 kts | 122° |
| 2026-04-20 14:12 | 25.24625 | 55.38030 | 29 ft | 8 kts | 62° |
| 2026-04-20 14:13 | 25.24665 | 55.38070 | 28 ft | 8 kts | 35° |
| 2026-04-20 14:13 | 25.24711 | 55.38101 | 31 ft | 8 kts | 32° |
| 2026-04-20 14:13 | 25.24758 | 55.38111 | 32 ft | 6 kts | 337° |
| 2026-04-20 14:13 | 25.24784 | 55.38067 | 31 ft | 8 kts | 299° |
| 2026-04-20 14:14 | 25.24885 | 55.37887 | 32 ft | 59 kts | 301° |
| 2026-04-20 14:14 | 25.25212 | 55.37297 | 33 ft | 119 kts | 301° |
| 2026-04-20 14:14 | 25.25743 | 55.36341 | 33 ft | 171 kts | 301° |
| 2026-04-20 14:14 | 25.26388 | 55.35214 | 641 ft | 168 kts | 303° |
| 2026-04-20 14:15 | 25.27031 | 55.34113 | 1170 ft | 175 kts | 301° |
| 2026-04-20 14:15 | 25.27698 | 55.32892 | 1447 ft | 195 kts | 301° |
| 2026-04-20 14:15 | 25.28431 | 55.31542 | 1577 ft | 216 kts | 301° |
| 2026-04-20 14:15 | 25.29109 | 55.30001 | 1818 ft | 230 kts | 285° |
| 2026-04-20 14:16 | 25.29049 | 55.28242 | 2309 ft | 234 kts | 251° |
| 2026-04-20 14:16 | 25.28408 | 55.26585 | 2879 ft | 235 kts | 245° |
| 2026-04-20 14:16 | 25.27686 | 55.24943 | 3349 ft | 241 kts | 246° |
| 2026-04-20 14:16 | 25.26952 | 55.23269 | 3836 ft | 243 kts | 246° |
| 2026-04-20 14:17 | 25.26220 | 55.21578 | 4361 ft | 245 kts | 247° |
| 2026-04-20 14:17 | 25.25499 | 55.19895 | 4860 ft | 247 kts | 247° |
| 2026-04-20 14:17 | 25.24682 | 55.18219 | 5361 ft | 250 kts | 236° |
| 2026-04-20 14:17 | 25.23343 | 55.16992 | 5841 ft | 256 kts | 204° |
| 2026-04-20 14:18 | 25.21566 | 55.16669 | 6223 ft | 265 kts | 178° |
| 2026-04-20 14:18 | 25.19730 | 55.16971 | 6640 ft | 270 kts | 161° |
| 2026-04-20 14:18 | 25.18141 | 55.18064 | 7012 ft | 275 kts | 132° |
| 2026-04-20 14:18 | 25.17052 | 55.19842 | 7256 ft | 286 kts | 116° |
| 2026-04-20 14:19 | 25.16136 | 55.21822 | 7674 ft | 292 kts | 115° |
| 2026-04-20 14:19 | 25.15211 | 55.23835 | 8198 ft | 295 kts | 116° |
| 2026-04-20 14:19 | 25.14265 | 55.25857 | 8746 ft | 298 kts | 116° |
| 2026-04-20 14:19 | 25.13303 | 55.27889 | 9317 ft | 300 kts | 116° |
| 2026-04-20 14:20 | 25.12327 | 55.29934 | 9869 ft | 302 kts | 116° |
| 2026-04-20 14:20 | 25.11338 | 55.31996 | 10366 ft | 305 kts | 116° |
| 2026-04-20 14:20 | 25.10344 | 55.34080 | 10821 ft | 309 kts | 115° |
| 2026-04-20 14:20 | 25.09434 | 55.36243 | 11301 ft | 313 kts | 112° |
| 2026-04-20 14:21 | 25.08552 | 55.38449 | 11771 ft | 316 kts | 112° |
| 2026-04-20 14:21 | 25.07655 | 55.40677 | 12232 ft | 321 kts | 112° |
| 2026-04-20 14:21 | 25.06728 | 55.42982 | 12465 ft | 335 kts | 112° |
| 2026-04-20 14:21 | 25.05806 | 55.45396 | 12667 ft | 348 kts | 111° |
| 2026-04-20 14:22 | 25.04855 | 55.47904 | 12852 ft | 361 kts | 111° |
| 2026-04-20 14:22 | 25.03866 | 55.50497 | 13064 ft | 373 kts | 111° |
| 2026-04-20 14:22 | 25.02840 | 55.53172 | 13264 ft | 384 kts | 112° |
| 2026-04-20 14:22 | 25.01695 | 55.55882 | 13441 ft | 396 kts | 117° |
| 2026-04-20 14:23 | 25.00309 | 55.58546 | 13613 ft | 406 kts | 120° |
| 2026-04-20 14:23 | 24.98845 | 55.61245 | 13774 ft | 415 kts | 120° |
| 2026-04-20 14:23 | 24.97349 | 55.63997 | 13974 ft | 422 kts | 120° |
| 2026-04-20 14:23 | 24.95839 | 55.66781 | 14288 ft | 425 kts | 120° |
| 2026-04-20 14:24 | 24.94297 | 55.69572 | 14649 ft | 427 kts | 123° |
| 2026-04-20 14:24 | 24.92595 | 55.72264 | 15026 ft | 429 kts | 126° |
| 2026-04-20 14:24 | 24.90835 | 55.74921 | 15410 ft | 430 kts | 126° |
| 2026-04-20 14:24 | 24.89063 | 55.77583 | 15792 ft | 432 kts | 126° |
| 2026-04-20 14:25 | 24.87285 | 55.80256 | 16168 ft | 434 kts | 126° |
| 2026-04-20 14:25 | 24.85501 | 55.82942 | 16531 ft | 435 kts | 126° |
| 2026-04-20 14:25 | 24.83712 | 55.85636 | 16916 ft | 437 kts | 126° |
| 2026-04-20 14:25 | 24.81902 | 55.88332 | 17280 ft | 438 kts | 127° |
| 2026-04-20 14:26 | 24.80073 | 55.91022 | 17652 ft | 440 kts | 127° |
| 2026-04-20 14:26 | 24.78183 | 55.93676 | 18003 ft | 442 kts | 131° |
| 2026-04-20 14:26 | 24.76082 | 55.96150 | 18328 ft | 443 kts | 135° |
| 2026-04-20 14:26 | 24.73854 | 55.98512 | 18599 ft | 446 kts | 137° |
| 2026-04-20 14:27 | 24.71563 | 56.00822 | 18878 ft | 448 kts | 139° |
| 2026-04-20 14:27 | 24.69244 | 56.03128 | 19161 ft | 450 kts | 139° |
| 2026-04-20 14:27 | 24.66953 | 56.05416 | 19431 ft | 452 kts | 139° |
| 2026-04-20 14:27 | 24.64627 | 56.07762 | 19705 ft | 455 kts | 138° |
| 2026-04-20 14:28 | 24.62301 | 56.10130 | 19982 ft | 457 kts | 138° |
| 2026-04-20 14:28 | 24.59972 | 56.12516 | 20243 ft | 459 kts | 138° |
| 2026-04-20 14:28 | 24.57670 | 56.14963 | 20523 ft | 462 kts | 134° |
| 2026-04-20 14:28 | 24.55489 | 56.17570 | 20791 ft | 465 kts | 133° |
| 2026-04-20 14:29 | 24.53346 | 56.20232 | 21068 ft | 466 kts | 132° |
| 2026-04-20 14:29 | 24.51215 | 56.22932 | 21327 ft | 469 kts | 132° |
| 2026-04-20 14:29 | 24.49804 | 56.24733 | 21496 ft | 470 kts | 131° |
| 2026-04-20 14:29 | 24.47671 | 56.27464 | 21753 ft | 472 kts | 132° |
| 2026-04-20 14:30 | 24.45534 | 56.30201 | 21993 ft | 474 kts | 131° |
| 2026-04-20 14:30 | 24.43375 | 56.32964 | 22174 ft | 478 kts | 131° |
| 2026-04-20 14:30 | 24.41203 | 56.35733 | 22410 ft | 480 kts | 131° |
| 2026-04-20 14:30 | 24.39019 | 56.38509 | 22637 ft | 482 kts | 132° |
| 2026-04-20 14:31 | 24.36801 | 56.41277 | 22870 ft | 484 kts | 135° |
| 2026-04-20 14:31 | 24.34296 | 56.43731 | 23122 ft | 483 kts | 146° |
| 2026-04-20 14:31 | 24.31393 | 56.45569 | 23320 ft | 481 kts | 159° |
| 2026-04-20 14:31 | 24.28197 | 56.46575 | 23533 ft | 477 kts | 174° |
| 2026-04-20 14:32 | 24.24906 | 56.46650 | 23760 ft | 472 kts | 190° |
| 2026-04-20 14:32 | 24.21743 | 56.45813 | 23978 ft | 466 kts | 204° |
| 2026-04-20 14:32 | 24.18906 | 56.44151 | 24210 ft | 461 kts | 218° |
| 2026-04-20 14:32 | 24.16550 | 56.41808 | 24423 ft | 457 kts | 232° |
| 2026-04-20 14:33 | 24.14595 | 56.39072 | 24623 ft | 456 kts | 237° |
| 2026-04-20 14:33 | 24.12833 | 56.36178 | 24864 ft | 457 kts | 240° |
| 2026-04-20 14:33 | 24.11160 | 56.33223 | 25067 ft | 458 kts | 240° |
| 2026-04-20 14:33 | 24.09500 | 56.30240 | 25293 ft | 459 kts | 240° |
| 2026-04-20 14:34 | 24.07829 | 56.27263 | 25526 ft | 460 kts | 240° |
| 2026-04-20 14:34 | 24.06132 | 56.24292 | 25768 ft | 461 kts | 239° |
| 2026-04-20 14:34 | 24.04412 | 56.21326 | 25956 ft | 463 kts | 239° |
| 2026-04-20 14:34 | 24.02671 | 56.18358 | 26195 ft | 464 kts | 239° |
| 2026-04-20 14:35 | 24.00919 | 56.15390 | 26438 ft | 465 kts | 239° |
| 2026-04-20 14:35 | 23.99157 | 56.12416 | 26640 ft | 467 kts | 239° |
| 2026-04-20 14:35 | 23.97411 | 56.09471 | 26856 ft | 468 kts | 239° |
| 2026-04-20 14:35 | 23.95638 | 56.06483 | 27082 ft | 469 kts | 239° |
| 2026-04-20 14:36 | 23.93859 | 56.03483 | 27307 ft | 471 kts | 239° |
| 2026-04-20 14:36 | 23.92073 | 56.00472 | 27524 ft | 473 kts | 239° |
| 2026-04-20 14:36 | 23.90282 | 55.97453 | 27715 ft | 474 kts | 239° |
| 2026-04-20 14:36 | 23.88486 | 55.94425 | 27928 ft | 475 kts | 238° |
| 2026-04-20 14:37 | 23.86684 | 55.91389 | 28146 ft | 477 kts | 238° |
| 2026-04-20 14:37 | 23.84876 | 55.88345 | 28328 ft | 478 kts | 238° |
| 2026-04-20 14:37 | 23.83061 | 55.85292 | 28532 ft | 480 kts | 238° |
| 2026-04-20 14:37 | 23.81243 | 55.82234 | 28717 ft | 481 kts | 238° |
| 2026-04-20 14:38 | 23.79415 | 55.79163 | 28885 ft | 483 kts | 238° |
| 2026-04-20 14:38 | 23.77580 | 55.76082 | 29050 ft | 485 kts | 239° |
| 2026-04-20 14:38 | 23.75739 | 55.72994 | 29247 ft | 486 kts | 239° |
| 2026-04-20 14:38 | 23.73893 | 55.69898 | 29426 ft | 487 kts | 238° |
| 2026-04-20 14:39 | 23.72043 | 55.66797 | 29651 ft | 488 kts | 238° |
| 2026-04-20 14:39 | 23.70193 | 55.63699 | 29959 ft | 486 kts | 238° |
| 2026-04-20 14:39 | 23.68351 | 55.60615 | 30189 ft | 486 kts | 239° |
| 2026-04-20 14:39 | 23.66503 | 55.57522 | 30402 ft | 486 kts | 239° |
| 2026-04-20 14:40 | 23.64656 | 55.54434 | 30645 ft | 486 kts | 239° |
| 2026-04-20 14:40 | 23.62809 | 55.51348 | 30882 ft | 486 kts | 239° |
| 2026-04-20 14:40 | 23.60959 | 55.48259 | 31116 ft | 486 kts | 240° |
| 2026-04-20 14:40 | 23.59113 | 55.45178 | 31385 ft | 485 kts | 240° |
| 2026-04-20 14:41 | 23.57267 | 55.42099 | 31654 ft | 485 kts | 240° |
| 2026-04-20 14:41 | 23.55424 | 55.39028 | 31925 ft | 484 kts | 240° |
| 2026-04-20 14:41 | 23.53582 | 55.35960 | 32194 ft | 484 kts | 240° |
| 2026-04-20 14:41 | 23.51739 | 55.32893 | 32463 ft | 483 kts | 240° |
| 2026-04-20 14:42 | 23.49901 | 55.29833 | 32736 ft | 483 kts | 241° |
| 2026-04-20 14:42 | 23.48062 | 55.26776 | 33013 ft | 482 kts | 241° |
| 2026-04-20 14:42 | 23.46227 | 55.23728 | 33361 ft | 479 kts | 241° |
| 2026-04-20 14:42 | 23.44430 | 55.20747 | 33724 ft | 476 kts | 241° |
| 2026-04-20 14:43 | 23.42587 | 55.17689 | 33976 ft | 476 kts | 242° |
| 2026-04-20 14:43 | 23.40800 | 55.14724 | 34224 ft | 474 kts | 242° |
| 2026-04-20 14:43 | 23.38995 | 55.11731 | 34496 ft | 472 kts | 242° |
| 2026-04-20 14:43 | 23.37194 | 55.08748 | 34768 ft | 471 kts | 242° |
| 2026-04-20 14:44 | 23.35398 | 55.05774 | 35055 ft | 469 kts | 243° |
| 2026-04-20 14:44 | 23.33609 | 55.02814 | 35305 ft | 467 kts | 243° |
| 2026-04-20 14:44 | 23.31827 | 54.99868 | 35570 ft | 465 kts | 244° |
| 2026-04-20 14:44 | 23.30053 | 54.96936 | 35786 ft | 465 kts | 244° |
| 2026-04-20 14:45 | 23.26483 | 54.91029 | 35800 ft | 468 kts | 244° |
| 2026-04-20 14:45 | 23.22897 | 54.85108 | 35807 ft | 469 kts | 244° |
| 2026-04-20 14:46 | 23.19307 | 54.79194 | 35799 ft | 469 kts | 244° |
| 2026-04-20 14:46 | 23.15713 | 54.73283 | 35804 ft | 469 kts | 244° |
| 2026-04-20 14:47 | 23.12124 | 54.67384 | 35808 ft | 467 kts | 244° |
| 2026-04-20 14:48 | 23.06744 | 54.58550 | 35804 ft | 467 kts | 244° |
| 2026-04-20 14:48 | 23.03153 | 54.52663 | 35805 ft | 467 kts | 244° |
| 2026-04-20 14:49 | 22.99565 | 54.46787 | 35802 ft | 466 kts | 244° |
| 2026-04-20 14:49 | 22.95985 | 54.40935 | 35804 ft | 465 kts | 244° |
| 2026-04-20 14:50 | 22.92407 | 54.35089 | 35806 ft | 465 kts | 244° |
| 2026-04-20 14:50 | 22.88828 | 54.29247 | 35793 ft | 465 kts | 244° |
| 2026-04-20 14:51 | 22.85246 | 54.23408 | 35806 ft | 465 kts | 244° |
| 2026-04-20 14:51 | 22.81667 | 54.17583 | 35802 ft | 463 kts | 244° |
| 2026-04-20 14:52 | 22.78122 | 54.11821 | 35803 ft | 462 kts | 244° |
| 2026-04-20 14:52 | 22.74556 | 54.06025 | 35799 ft | 462 kts | 244° |
| 2026-04-20 14:53 | 22.70993 | 54.00242 | 35801 ft | 462 kts | 244° |
| 2026-04-20 14:53 | 22.67426 | 53.94460 | 35801 ft | 461 kts | 244° |
| 2026-04-20 14:54 | 22.63863 | 53.88690 | 35801 ft | 461 kts | 244° |
| 2026-04-20 14:54 | 22.60299 | 53.82923 | 35799 ft | 461 kts | 244° |
| 2026-04-20 14:55 | 22.56730 | 53.77158 | 35795 ft | 461 kts | 244° |
| 2026-04-20 14:55 | 22.53160 | 53.71396 | 35795 ft | 461 kts | 244° |
| 2026-04-20 14:56 | 22.49596 | 53.65648 | 35797 ft | 460 kts | 244° |
| 2026-04-20 14:56 | 22.46028 | 53.59901 | 35795 ft | 460 kts | 244° |
| 2026-04-20 14:57 | 22.42459 | 53.54161 | 35790 ft | 460 kts | 244° |
| 2026-04-20 14:57 | 22.38880 | 53.48408 | 35795 ft | 462 kts | 244° |
| 2026-04-20 14:58 | 22.35295 | 53.42652 | 35794 ft | 462 kts | 244° |
| 2026-04-20 14:58 | 22.31707 | 53.36900 | 35790 ft | 462 kts | 244° |
| 2026-04-20 14:59 | 22.28118 | 53.31153 | 35787 ft | 462 kts | 244° |
| 2026-04-20 14:59 | 22.24526 | 53.25405 | 35791 ft | 462 kts | 244° |
| 2026-04-20 15:00 | 22.20957 | 53.19701 | 35788 ft | 461 kts | 244° |
| 2026-04-20 15:00 | 22.17369 | 53.13974 | 35791 ft | 461 kts | 244° |
| 2026-04-20 15:01 | 22.13776 | 53.08241 | 35789 ft | 461 kts | 244° |
| 2026-04-20 15:01 | 22.10182 | 53.02515 | 35783 ft | 461 kts | 244° |
| 2026-04-20 15:02 | 22.06588 | 52.96795 | 35785 ft | 460 kts | 244° |
| 2026-04-20 15:02 | 22.02997 | 52.91088 | 35782 ft | 460 kts | 244° |
| 2026-04-20 15:03 | 21.99407 | 52.85386 | 35781 ft | 460 kts | 244° |
| 2026-04-20 15:03 | 21.95810 | 52.79678 | 35774 ft | 461 kts | 244° |
| 2026-04-20 15:04 | 21.92751 | 52.73724 | 35769 ft | 447 kts | 256° |
| 2026-04-20 15:04 | 21.91355 | 52.67351 | 35782 ft | 431 kts | 271° |
| 2026-04-20 15:05 | 21.91633 | 52.60982 | 35769 ft | 424 kts | 282° |
| 2026-04-20 15:05 | 21.92729 | 52.54759 | 35779 ft | 423 kts | 285° |
| 2026-04-20 15:06 | 21.93976 | 52.48577 | 35779 ft | 423 kts | 285° |
| 2026-04-20 15:06 | 21.95163 | 52.42422 | 35785 ft | 422 kts | 284° |
| 2026-04-20 15:07 | 21.96309 | 52.36220 | 35772 ft | 422 kts | 284° |
| 2026-04-20 15:07 | 21.97438 | 52.30011 | 35788 ft | 422 kts | 284° |
| 2026-04-20 15:08 | 21.98564 | 52.23803 | 35766 ft | 422 kts | 284° |
| 2026-04-20 15:08 | 21.99691 | 52.17596 | 35780 ft | 422 kts | 284° |
| 2026-04-20 15:09 | 22.00816 | 52.11388 | 35782 ft | 422 kts | 284° |
| 2026-04-20 15:09 | 22.01940 | 52.05176 | 35776 ft | 422 kts | 284° |
| 2026-04-20 15:10 | 22.03062 | 51.98957 | 35778 ft | 423 kts | 284° |
| 2026-04-20 15:10 | 22.04182 | 51.92735 | 35777 ft | 423 kts | 284° |
| 2026-04-20 15:11 | 22.05300 | 51.86511 | 35779 ft | 423 kts | 284° |
| 2026-04-20 15:11 | 22.06417 | 51.80277 | 35770 ft | 423 kts | 284° |
| 2026-04-20 15:12 | 22.07523 | 51.74095 | 35769 ft | 423 kts | 284° |
| 2026-04-20 15:12 | 22.08633 | 51.67871 | 35771 ft | 423 kts | 284° |
| 2026-04-20 15:13 | 22.09740 | 51.61651 | 35770 ft | 422 kts | 284° |
| 2026-04-20 15:13 | 22.10845 | 51.55430 | 35769 ft | 422 kts | 284° |
| 2026-04-20 15:14 | 22.11947 | 51.49206 | 35771 ft | 422 kts | 284° |
| 2026-04-20 15:14 | 22.13047 | 51.42988 | 35786 ft | 422 kts | 283° |
| 2026-04-20 15:15 | 22.14145 | 51.36768 | 35770 ft | 422 kts | 283° |
| 2026-04-20 15:15 | 22.15237 | 51.30553 | 35769 ft | 422 kts | 284° |
| 2026-04-20 15:16 | 22.16327 | 51.24342 | 35773 ft | 421 kts | 284° |
| 2026-04-20 15:16 | 22.17416 | 51.18133 | 35769 ft | 421 kts | 284° |
| 2026-04-20 15:17 | 22.18501 | 51.11926 | 35772 ft | 421 kts | 284° |
| 2026-04-20 15:17 | 22.19577 | 51.05753 | 35771 ft | 421 kts | 284° |
| 2026-04-20 15:18 | 22.20657 | 50.99542 | 35768 ft | 421 kts | 284° |
| 2026-04-20 15:18 | 22.21735 | 50.93329 | 35772 ft | 421 kts | 284° |
| 2026-04-20 15:19 | 22.22811 | 50.87115 | 35775 ft | 421 kts | 283° |
| 2026-04-20 15:19 | 22.23885 | 50.80897 | 35773 ft | 421 kts | 283° |
| 2026-04-20 15:20 | 22.24956 | 50.74680 | 35770 ft | 421 kts | 283° |
| 2026-04-20 15:20 | 22.25845 | 50.69514 | 35772 ft | 421 kts | 283° |
| 2026-04-20 15:21 | 22.26912 | 50.63292 | 35763 ft | 422 kts | 283° |
| 2026-04-20 15:21 | 22.27978 | 50.57062 | 35768 ft | 422 kts | 283° |
| 2026-04-20 15:22 | 22.29044 | 50.50825 | 35764 ft | 422 kts | 283° |
| 2026-04-20 15:22 | 22.30105 | 50.44591 | 35766 ft | 422 kts | 283° |
| 2026-04-20 15:23 | 22.31165 | 50.38353 | 35770 ft | 423 kts | 283° |
| 2026-04-20 15:23 | 22.32225 | 50.32105 | 35777 ft | 423 kts | 283° |
| 2026-04-20 15:24 | 22.33281 | 50.25862 | 35764 ft | 422 kts | 283° |
| 2026-04-20 15:24 | 22.34334 | 50.19620 | 35765 ft | 422 kts | 283° |
| 2026-04-20 15:25 | 22.35385 | 50.13378 | 35764 ft | 423 kts | 283° |
| 2026-04-20 15:25 | 22.36434 | 50.07129 | 35767 ft | 423 kts | 283° |
| 2026-04-20 15:26 | 22.37475 | 50.00912 | 35766 ft | 423 kts | 283° |
| 2026-04-20 15:26 | 22.38520 | 49.94656 | 35765 ft | 423 kts | 283° |
| 2026-04-20 15:27 | 22.39562 | 49.88404 | 35764 ft | 423 kts | 283° |
| 2026-04-20 15:27 | 22.40602 | 49.82147 | 35761 ft | 423 kts | 283° |
| 2026-04-20 15:28 | 22.41639 | 49.75895 | 35763 ft | 423 kts | 283° |
| 2026-04-20 15:28 | 22.42674 | 49.69646 | 35765 ft | 422 kts | 283° |
| 2026-04-20 15:29 | 22.43705 | 49.63398 | 35763 ft | 422 kts | 283° |
| 2026-04-20 15:29 | 22.44732 | 49.57157 | 35762 ft | 422 kts | 283° |
| 2026-04-20 15:30 | 22.45757 | 49.50914 | 35766 ft | 422 kts | 282° |
| 2026-04-20 15:30 | 22.46778 | 49.44683 | 35761 ft | 420 kts | 282° |
| 2026-04-20 15:31 | 22.47795 | 49.38457 | 35763 ft | 420 kts | 282° |
| 2026-04-20 15:31 | 22.48809 | 49.32234 | 35757 ft | 420 kts | 282° |
| 2026-04-20 15:32 | 22.49821 | 49.26011 | 35757 ft | 420 kts | 282° |
| 2026-04-20 15:32 | 22.50828 | 49.19804 | 35756 ft | 419 kts | 282° |
| 2026-04-20 15:33 | 22.51825 | 49.13644 | 35757 ft | 418 kts | 282° |
| 2026-04-20 15:33 | 22.52824 | 49.07448 | 35747 ft | 418 kts | 282° |
| 2026-04-20 15:34 | 22.53822 | 49.01247 | 35754 ft | 418 kts | 282° |
| 2026-04-20 15:34 | 22.54818 | 48.95047 | 35754 ft | 418 kts | 282° |
| 2026-04-20 15:35 | 22.55811 | 48.88842 | 35753 ft | 418 kts | 282° |
| 2026-04-20 15:35 | 22.56802 | 48.82639 | 35755 ft | 418 kts | 282° |
| 2026-04-20 15:36 | 22.57790 | 48.76436 | 35754 ft | 418 kts | 282° |
| 2026-04-20 15:36 | 22.58777 | 48.70235 | 35758 ft | 418 kts | 282° |
| 2026-04-20 15:37 | 22.59760 | 48.64035 | 35744 ft | 418 kts | 282° |
| 2026-04-20 15:37 | 22.60740 | 48.57832 | 35757 ft | 418 kts | 281° |
| 2026-04-20 15:38 | 22.61719 | 48.51626 | 35751 ft | 418 kts | 281° |
| 2026-04-20 15:38 | 22.62695 | 48.45417 | 35749 ft | 418 kts | 281° |
| 2026-04-20 15:39 | 22.63670 | 48.39207 | 35750 ft | 419 kts | 281° |
| 2026-04-20 15:39 | 22.64643 | 48.32989 | 35750 ft | 419 kts | 281° |
| 2026-04-20 15:40 | 22.65614 | 48.26769 | 35750 ft | 419 kts | 281° |
| 2026-04-20 15:40 | 22.66575 | 48.20593 | 35756 ft | 419 kts | 281° |
| 2026-04-20 15:41 | 22.67540 | 48.14381 | 35750 ft | 418 kts | 281° |
| 2026-04-20 15:41 | 22.68501 | 48.08174 | 35749 ft | 418 kts | 281° |
| 2026-04-20 15:42 | 22.69445 | 48.01968 | 35748 ft | 418 kts | 279° |
| 2026-04-20 15:42 | 22.70020 | 47.95692 | 35748 ft | 419 kts | 276° |
| 2026-04-20 15:43 | 22.70444 | 47.89399 | 35751 ft | 419 kts | 276° |
| 2026-04-20 15:43 | 22.70913 | 47.83112 | 35752 ft | 419 kts | 277° |
| 2026-04-20 15:44 | 22.71424 | 47.76836 | 35754 ft | 418 kts | 277° |
| 2026-04-20 15:44 | 22.71946 | 47.70561 | 35754 ft | 418 kts | 277° |
| 2026-04-20 15:45 | 22.72466 | 47.64290 | 35768 ft | 418 kts | 277° |
| 2026-04-20 15:45 | 22.72980 | 47.58025 | 35762 ft | 417 kts | 277° |
| 2026-04-20 15:46 | 22.73488 | 47.51782 | 35756 ft | 415 kts | 277° |
| 2026-04-20 15:46 | 22.73993 | 47.45551 | 35762 ft | 415 kts | 277° |
| 2026-04-20 15:47 | 22.74496 | 47.39321 | 35769 ft | 415 kts | 277° |
| 2026-04-20 15:47 | 22.74997 | 47.33093 | 35757 ft | 415 kts | 276° |
| 2026-04-20 15:48 | 22.75492 | 47.26906 | 35775 ft | 415 kts | 276° |
| 2026-04-20 15:48 | 22.75987 | 47.20677 | 35776 ft | 415 kts | 276° |
| 2026-04-20 15:49 | 22.76484 | 47.14451 | 35771 ft | 415 kts | 276° |
| 2026-04-20 15:49 | 22.76979 | 47.08224 | 35783 ft | 415 kts | 276° |
| 2026-04-20 15:50 | 22.77470 | 47.02006 | 35784 ft | 414 kts | 276° |
| 2026-04-20 15:50 | 22.77958 | 46.95804 | 35773 ft | 413 kts | 276° |
| 2026-04-20 15:51 | 22.78445 | 46.89596 | 35772 ft | 413 kts | 276° |
| 2026-04-20 15:51 | 22.78928 | 46.83395 | 35779 ft | 413 kts | 276° |
| 2026-04-20 15:52 | 22.79410 | 46.77191 | 35790 ft | 413 kts | 276° |
| 2026-04-20 15:52 | 22.79888 | 46.70988 | 35786 ft | 413 kts | 276° |
| 2026-04-20 15:53 | 22.80602 | 46.61680 | 35790 ft | 413 kts | 276° |
| 2026-04-20 15:53 | 22.81075 | 46.55474 | 35800 ft | 413 kts | 276° |
| 2026-04-20 15:54 | 22.81546 | 46.49266 | 35805 ft | 414 kts | 276° |
| 2026-04-20 15:54 | 22.82014 | 46.43064 | 35798 ft | 412 kts | 276° |
| 2026-04-20 15:55 | 22.82478 | 46.36878 | 35789 ft | 412 kts | 276° |
| 2026-04-20 15:55 | 22.82938 | 46.30686 | 35787 ft | 413 kts | 276° |
| 2026-04-20 15:56 | 22.83395 | 46.24485 | 35785 ft | 413 kts | 276° |
| 2026-04-20 15:56 | 22.83847 | 46.18326 | 35790 ft | 413 kts | 275° |
| 2026-04-20 15:57 | 22.84301 | 46.12111 | 35785 ft | 415 kts | 275° |
| 2026-04-20 15:57 | 22.84753 | 46.05863 | 35782 ft | 416 kts | 275° |
| 2026-04-20 15:58 | 22.85205 | 45.99610 | 35772 ft | 416 kts | 275° |
| 2026-04-20 15:58 | 22.85655 | 45.93359 | 35770 ft | 416 kts | 275° |
| 2026-04-20 15:59 | 22.86101 | 45.87119 | 35777 ft | 413 kts | 275° |
| 2026-04-20 15:59 | 22.86542 | 45.80910 | 35772 ft | 412 kts | 275° |
| 2026-04-20 16:00 | 22.86981 | 45.74710 | 35766 ft | 413 kts | 275° |
| 2026-04-20 16:00 | 22.87417 | 45.68500 | 35775 ft | 413 kts | 275° |
| 2026-04-20 16:01 | 22.87852 | 45.62288 | 35766 ft | 413 kts | 275° |
| 2026-04-20 16:01 | 22.88284 | 45.56066 | 35765 ft | 414 kts | 275° |
| 2026-04-20 16:02 | 22.88714 | 45.49840 | 35765 ft | 414 kts | 275° |
| 2026-04-20 16:02 | 22.89142 | 45.43608 | 35778 ft | 414 kts | 275° |
| 2026-04-20 16:03 | 22.89568 | 45.37372 | 35786 ft | 414 kts | 274° |
| 2026-04-20 16:03 | 22.89989 | 45.31191 | 35781 ft | 414 kts | 274° |
| 2026-04-20 16:04 | 22.90409 | 45.24965 | 35781 ft | 414 kts | 274° |
| 2026-04-20 16:04 | 22.90828 | 45.18736 | 35774 ft | 414 kts | 274° |
| 2026-04-20 16:05 | 22.91244 | 45.12502 | 35787 ft | 414 kts | 274° |
| 2026-04-20 16:05 | 22.91658 | 45.06274 | 35782 ft | 414 kts | 274° |
| 2026-04-20 16:06 | 22.92068 | 45.00047 | 35785 ft | 414 kts | 274° |
| 2026-04-20 16:06 | 22.92475 | 44.93808 | 35788 ft | 416 kts | 274° |
| 2026-04-20 16:07 | 22.92881 | 44.87548 | 35787 ft | 416 kts | 274° |
| 2026-04-20 16:07 | 22.93287 | 44.81279 | 35792 ft | 416 kts | 274° |
| 2026-04-20 16:08 | 22.93690 | 44.75010 | 35796 ft | 416 kts | 274° |
| 2026-04-20 16:08 | 22.94160 | 44.68752 | 35801 ft | 416 kts | 278° |
| 2026-04-20 16:09 | 22.95556 | 44.62657 | 35805 ft | 417 kts | 285° |
| 2026-04-20 16:09 | 22.97351 | 44.56706 | 35805 ft | 418 kts | 287° |
| 2026-04-20 16:10 | 22.99224 | 44.50724 | 35809 ft | 418 kts | 287° |
| 2026-04-20 16:10 | 23.01086 | 44.44747 | 35813 ft | 418 kts | 287° |
| 2026-04-20 16:11 | 23.02934 | 44.38761 | 35813 ft | 418 kts | 286° |
| 2026-04-20 16:11 | 23.04474 | 44.33748 | 35817 ft | 418 kts | 286° |
| 2026-04-20 16:12 | 23.06309 | 44.27765 | 35823 ft | 418 kts | 286° |
| 2026-04-20 16:12 | 23.08144 | 44.21777 | 35833 ft | 418 kts | 286° |
| 2026-04-20 16:13 | 23.09961 | 44.15837 | 35818 ft | 417 kts | 286° |
| 2026-04-20 16:13 | 23.11785 | 44.09864 | 35835 ft | 417 kts | 286° |
| 2026-04-20 16:14 | 23.13609 | 44.03885 | 35843 ft | 417 kts | 286° |
| 2026-04-20 16:14 | 23.15426 | 43.97914 | 35838 ft | 415 kts | 286° |
| 2026-04-20 16:15 | 23.17240 | 43.91955 | 35840 ft | 415 kts | 286° |
| 2026-04-20 16:15 | 23.19049 | 43.85999 | 35855 ft | 415 kts | 286° |
| 2026-04-20 16:16 | 23.20855 | 43.80041 | 35861 ft | 415 kts | 285° |
| 2026-04-20 16:16 | 23.22657 | 43.74089 | 35869 ft | 414 kts | 285° |
| 2026-04-20 16:17 | 23.24456 | 43.68135 | 35869 ft | 414 kts | 285° |
| 2026-04-20 16:17 | 23.26253 | 43.62182 | 35870 ft | 415 kts | 285° |
| 2026-04-20 16:18 | 23.28056 | 43.56202 | 35896 ft | 417 kts | 285° |
| 2026-04-20 16:18 | 23.29863 | 43.50210 | 35909 ft | 417 kts | 285° |
| 2026-04-20 16:19 | 23.31664 | 43.44207 | 35904 ft | 417 kts | 285° |
| 2026-04-20 16:19 | 23.33464 | 43.38203 | 35913 ft | 418 kts | 285° |
| 2026-04-20 16:20 | 23.35264 | 43.32194 | 35925 ft | 418 kts | 285° |
| 2026-04-20 16:20 | 23.37063 | 43.26180 | 35941 ft | 418 kts | 285° |
| 2026-04-20 16:21 | 23.38848 | 43.20204 | 35943 ft | 418 kts | 285° |
| 2026-04-20 16:21 | 23.40641 | 43.14191 | 35957 ft | 418 kts | 285° |
| 2026-04-20 16:22 | 23.42434 | 43.08177 | 35958 ft | 418 kts | 285° |
| 2026-04-20 16:22 | 23.44216 | 43.02158 | 35982 ft | 418 kts | 285° |
| 2026-04-20 16:23 | 23.45993 | 42.96146 | 35972 ft | 416 kts | 285° |
| 2026-04-20 16:23 | 23.47766 | 42.90149 | 35970 ft | 416 kts | 285° |
| 2026-04-20 16:24 | 23.49536 | 42.84152 | 35975 ft | 416 kts | 285° |
| 2026-04-20 16:24 | 23.51305 | 42.78152 | 35973 ft | 416 kts | 285° |
| 2026-04-20 16:25 | 23.53073 | 42.72156 | 35978 ft | 416 kts | 285° |
| 2026-04-20 16:25 | 23.54828 | 42.66199 | 35977 ft | 416 kts | 285° |
| 2026-04-20 16:26 | 23.56591 | 42.60199 | 35973 ft | 416 kts | 285° |
| 2026-04-20 16:26 | 23.58348 | 42.54211 | 35973 ft | 415 kts | 285° |
| 2026-04-20 16:27 | 23.60116 | 42.48178 | 35973 ft | 415 kts | 285° |
| 2026-04-20 16:27 | 23.61859 | 42.42225 | 35968 ft | 415 kts | 285° |
| 2026-04-20 16:28 | 23.63608 | 42.36239 | 35965 ft | 414 kts | 284° |
| 2026-04-20 16:28 | 23.65355 | 42.30254 | 35969 ft | 414 kts | 284° |
| 2026-04-20 16:29 | 23.67098 | 42.24276 | 35957 ft | 414 kts | 284° |
| 2026-04-20 16:29 | 23.68830 | 42.18292 | 35956 ft | 413 kts | 284° |
| 2026-04-20 16:30 | 23.70557 | 42.12315 | 35959 ft | 413 kts | 284° |
| 2026-04-20 16:30 | 23.72283 | 42.06337 | 35960 ft | 413 kts | 284° |
| 2026-04-20 16:31 | 23.74008 | 42.00358 | 35959 ft | 413 kts | 284° |
| 2026-04-20 16:31 | 23.75727 | 41.94417 | 35951 ft | 413 kts | 284° |
| 2026-04-20 16:32 | 23.77454 | 41.88438 | 35949 ft | 413 kts | 284° |
| 2026-04-20 16:32 | 23.79177 | 41.82460 | 35939 ft | 413 kts | 284° |
| 2026-04-20 16:33 | 23.80898 | 41.76481 | 35945 ft | 413 kts | 284° |
| 2026-04-20 16:33 | 23.82617 | 41.70511 | 35938 ft | 412 kts | 284° |
| 2026-04-20 16:34 | 23.84326 | 41.64542 | 35937 ft | 411 kts | 284° |
| 2026-04-20 16:34 | 23.86031 | 41.58579 | 35926 ft | 411 kts | 284° |
| 2026-04-20 16:35 | 23.87736 | 41.52617 | 35930 ft | 410 kts | 284° |
| 2026-04-20 16:35 | 23.89422 | 41.46680 | 35922 ft | 409 kts | 284° |
| 2026-04-20 16:36 | 23.91103 | 41.40741 | 35919 ft | 409 kts | 284° |
| 2026-04-20 16:36 | 23.92783 | 41.34802 | 35919 ft | 409 kts | 284° |
| 2026-04-20 16:37 | 23.94462 | 41.28882 | 35911 ft | 406 kts | 284° |
| 2026-04-20 16:37 | 23.96122 | 41.23025 | 35908 ft | 406 kts | 284° |
| 2026-04-20 16:38 | 23.97789 | 41.17129 | 35904 ft | 406 kts | 284° |
| 2026-04-20 16:38 | 23.99454 | 41.11233 | 35906 ft | 406 kts | 284° |
| 2026-04-20 16:39 | 24.01113 | 41.05346 | 35905 ft | 404 kts | 284° |
| 2026-04-20 16:39 | 24.02767 | 40.99469 | 35903 ft | 404 kts | 284° |
| 2026-04-20 16:40 | 24.04420 | 40.93596 | 35903 ft | 404 kts | 284° |
| 2026-04-20 16:40 | 24.06070 | 40.87721 | 35901 ft | 403 kts | 284° |
| 2026-04-20 16:41 | 24.07711 | 40.81853 | 35909 ft | 403 kts | 284° |
| 2026-04-20 16:41 | 24.09350 | 40.75986 | 35895 ft | 403 kts | 284° |
| 2026-04-20 16:42 | 24.10989 | 40.70115 | 35889 ft | 403 kts | 284° |
| 2026-04-20 16:42 | 24.12624 | 40.64249 | 35900 ft | 403 kts | 284° |
| 2026-04-20 16:43 | 24.14247 | 40.58420 | 35890 ft | 403 kts | 284° |
| 2026-04-20 16:43 | 24.15936 | 40.52567 | 35897 ft | 405 kts | 287° |
| 2026-04-20 16:44 | 24.18335 | 40.46955 | 35885 ft | 408 kts | 292° |
| 2026-04-20 16:44 | 24.20960 | 40.41440 | 35885 ft | 409 kts | 292° |
| 2026-04-20 16:45 | 24.23621 | 40.35936 | 35887 ft | 408 kts | 292° |
| 2026-04-20 16:45 | 24.26272 | 40.30429 | 35885 ft | 408 kts | 292° |
| 2026-04-20 16:46 | 24.28912 | 40.24914 | 35893 ft | 408 kts | 292° |
| 2026-04-20 16:46 | 24.31544 | 40.19404 | 35889 ft | 408 kts | 292° |
| 2026-04-20 16:47 | 24.34175 | 40.13887 | 35889 ft | 408 kts | 292° |
| 2026-04-20 16:47 | 24.36802 | 40.08374 | 35887 ft | 408 kts | 292° |
| 2026-04-20 16:48 | 24.39428 | 40.02858 | 35900 ft | 408 kts | 292° |
| 2026-04-20 16:48 | 24.42034 | 39.97379 | 35886 ft | 407 kts | 292° |
| 2026-04-20 16:49 | 24.44646 | 39.91878 | 35886 ft | 406 kts | 292° |
| 2026-04-20 16:49 | 24.47257 | 39.86372 | 35885 ft | 406 kts | 292° |
| 2026-04-20 16:50 | 24.49864 | 39.80869 | 35883 ft | 406 kts | 292° |
| 2026-04-20 16:50 | 24.52479 | 39.75372 | 35884 ft | 406 kts | 293° |
| 2026-04-20 16:51 | 24.55798 | 39.70267 | 35885 ft | 418 kts | 304° |
| 2026-04-20 16:51 | 24.60285 | 39.66039 | 35884 ft | 430 kts | 313° |
| 2026-04-20 16:52 | 24.65142 | 39.62143 | 35880 ft | 433 kts | 314° |
| 2026-04-20 16:52 | 24.70048 | 39.58294 | 35882 ft | 433 kts | 314° |
| 2026-04-20 16:53 | 24.74937 | 39.54419 | 35871 ft | 433 kts | 314° |
| 2026-04-20 16:53 | 24.79768 | 39.50559 | 35873 ft | 432 kts | 314° |
| 2026-04-20 16:54 | 24.84659 | 39.46638 | 35877 ft | 432 kts | 314° |
| 2026-04-20 16:54 | 24.89515 | 39.42741 | 35873 ft | 431 kts | 314° |
| 2026-04-20 16:55 | 24.94329 | 39.38880 | 35867 ft | 431 kts | 314° |
| 2026-04-20 16:55 | 24.99166 | 39.34993 | 35895 ft | 430 kts | 313° |
| 2026-04-20 16:56 | 25.04005 | 39.31102 | 35874 ft | 431 kts | 313° |
| 2026-04-20 16:56 | 25.08850 | 39.27201 | 35868 ft | 431 kts | 313° |
| 2026-04-20 16:57 | 25.13695 | 39.23296 | 35877 ft | 431 kts | 313° |
| 2026-04-20 16:57 | 25.18538 | 39.19386 | 35894 ft | 430 kts | 313° |
| 2026-04-20 16:58 | 25.22824 | 39.14978 | 35872 ft | 413 kts | 301° |
| 2026-04-20 16:58 | 25.26117 | 39.09870 | 35873 ft | 406 kts | 295° |
| 2026-04-20 16:59 | 25.29186 | 39.04631 | 35860 ft | 405 kts | 295° |
| 2026-04-20 16:59 | 25.32223 | 38.99375 | 35858 ft | 406 kts | 295° |
| 2026-04-20 17:00 | 25.36803 | 38.91505 | 35863 ft | 406 kts | 295° |
| 2026-04-20 17:01 | 25.39342 | 38.87149 | 35864 ft | 405 kts | 295° |
| 2026-04-20 17:01 | 25.42394 | 38.81910 | 35866 ft | 405 kts | 295° |
| 2026-04-20 17:02 | 25.45933 | 38.75828 | 35851 ft | 404 kts | 295° |
| 2026-04-20 17:02 | 25.48481 | 38.71448 | 35840 ft | 404 kts | 295° |
| 2026-04-20 17:03 | 25.52010 | 38.65374 | 35843 ft | 403 kts | 295° |
| 2026-04-20 17:03 | 25.54553 | 38.60990 | 35837 ft | 404 kts | 295° |
| 2026-04-20 17:04 | 25.57587 | 38.55753 | 35832 ft | 404 kts | 295° |
| 2026-04-20 17:04 | 25.60620 | 38.50514 | 35835 ft | 404 kts | 295° |
| 2026-04-20 17:05 | 25.63629 | 38.45310 | 35832 ft | 404 kts | 295° |
| 2026-04-20 17:05 | 25.66656 | 38.40070 | 35830 ft | 404 kts | 295° |
| 2026-04-20 17:06 | 25.69683 | 38.34826 | 35840 ft | 403 kts | 294° |
| 2026-04-20 17:06 | 25.72696 | 38.29600 | 35834 ft | 402 kts | 294° |
| 2026-04-20 17:07 | 25.75706 | 38.24370 | 35831 ft | 402 kts | 294° |
| 2026-04-20 17:07 | 25.78715 | 38.19135 | 35834 ft | 403 kts | 294° |
| 2026-04-20 17:08 | 25.81727 | 38.13891 | 35829 ft | 403 kts | 294° |
| 2026-04-20 17:08 | 25.84738 | 38.08642 | 35831 ft | 403 kts | 294° |
| 2026-04-20 17:09 | 25.87745 | 38.03396 | 35837 ft | 402 kts | 294° |
| 2026-04-20 17:09 | 25.90746 | 37.98153 | 35851 ft | 402 kts | 294° |
| 2026-04-20 17:10 | 25.93732 | 37.92944 | 35834 ft | 403 kts | 294° |
| 2026-04-20 17:10 | 25.96757 | 37.87685 | 35871 ft | 404 kts | 294° |
| 2026-04-20 17:11 | 25.99500 | 37.82318 | 36061 ft | 394 kts | 287° |
| 2026-04-20 17:11 | 26.00443 | 37.79499 | 36470 ft | 385 kts | 281° |
| 2026-04-20 17:11 | 26.01065 | 37.76634 | 36844 ft | 379 kts | 277° |
| 2026-04-20 17:11 | 26.01525 | 37.73764 | 37189 ft | 376 kts | 276° |
| 2026-04-20 17:12 | 26.01931 | 37.70900 | 37513 ft | 374 kts | 275° |
| 2026-04-20 17:12 | 26.02311 | 37.68048 | 37809 ft | 372 kts | 275° |
| 2026-04-20 17:12 | 26.02680 | 37.65198 | 37880 ft | 373 kts | 275° |
| 2026-04-20 17:13 | 26.03427 | 37.59470 | 37882 ft | 376 kts | 275° |
| 2026-04-20 17:13 | 26.04199 | 37.53709 | 37887 ft | 377 kts | 275° |
| 2026-04-20 17:14 | 26.04977 | 37.47948 | 37880 ft | 376 kts | 275° |
| 2026-04-20 17:14 | 26.05751 | 37.42192 | 37878 ft | 377 kts | 275° |
| 2026-04-20 17:15 | 26.06529 | 37.36418 | 37875 ft | 378 kts | 275° |
| 2026-04-20 17:15 | 26.07304 | 37.30643 | 37871 ft | 377 kts | 275° |
| 2026-04-20 17:16 | 26.08060 | 37.24900 | 37873 ft | 377 kts | 275° |
| 2026-04-20 17:16 | 26.08818 | 37.19138 | 37865 ft | 376 kts | 275° |
| 2026-04-20 17:17 | 26.09577 | 37.13375 | 37865 ft | 377 kts | 275° |
| 2026-04-20 17:17 | 26.10336 | 37.07621 | 37856 ft | 376 kts | 275° |
| 2026-04-20 17:18 | 26.11091 | 37.01861 | 37857 ft | 377 kts | 275° |
| 2026-04-20 17:18 | 26.11845 | 36.96095 | 37853 ft | 376 kts | 275° |
| 2026-04-20 17:19 | 26.12596 | 36.90342 | 37863 ft | 376 kts | 275° |
| 2026-04-20 17:19 | 26.13343 | 36.84584 | 37851 ft | 376 kts | 275° |
| 2026-04-20 17:20 | 26.14091 | 36.78809 | 37847 ft | 377 kts | 275° |
| 2026-04-20 17:20 | 26.14836 | 36.73037 | 37856 ft | 376 kts | 275° |
| 2026-04-20 17:21 | 26.15576 | 36.67282 | 37839 ft | 375 kts | 275° |
| 2026-04-20 17:21 | 26.16314 | 36.61529 | 37838 ft | 375 kts | 275° |
| 2026-04-20 17:22 | 26.17072 | 36.55781 | 37858 ft | 376 kts | 277° |
| 2026-04-20 17:22 | 26.18575 | 36.50172 | 37853 ft | 383 kts | 287° |
| 2026-04-20 17:23 | 26.21337 | 36.45032 | 37856 ft | 398 kts | 299° |
| 2026-04-20 17:23 | 26.25088 | 36.40399 | 37854 ft | 406 kts | 303° |
| 2026-04-20 17:24 | 26.29054 | 36.35911 | 37882 ft | 407 kts | 304° |
| 2026-04-20 17:24 | 26.33018 | 36.31430 | 37850 ft | 405 kts | 303° |
| 2026-04-20 17:25 | 26.36944 | 36.26928 | 37848 ft | 405 kts | 303° |
| 2026-04-20 17:25 | 26.40854 | 36.22408 | 37845 ft | 404 kts | 303° |
| 2026-04-20 17:26 | 26.44759 | 36.17887 | 37842 ft | 404 kts | 303° |
| 2026-04-20 17:26 | 26.48662 | 36.13365 | 37842 ft | 405 kts | 303° |
| 2026-04-20 17:27 | 26.52564 | 36.08841 | 37841 ft | 405 kts | 303° |
| 2026-04-20 17:27 | 26.56470 | 36.04309 | 37844 ft | 404 kts | 303° |
| 2026-04-20 17:28 | 26.60367 | 35.99782 | 37842 ft | 404 kts | 303° |
| 2026-04-20 17:28 | 26.64240 | 35.95278 | 37848 ft | 404 kts | 303° |
| 2026-04-20 17:29 | 26.68136 | 35.90744 | 37854 ft | 404 kts | 303° |
| 2026-04-20 17:29 | 26.72026 | 35.86212 | 37848 ft | 404 kts | 303° |
| 2026-04-20 17:30 | 26.75913 | 35.81676 | 37849 ft | 404 kts | 303° |
| 2026-04-20 17:30 | 26.79800 | 35.77141 | 37850 ft | 404 kts | 303° |
| 2026-04-20 17:31 | 26.83683 | 35.72605 | 37854 ft | 403 kts | 303° |
| 2026-04-20 17:31 | 26.87563 | 35.68061 | 37851 ft | 403 kts | 303° |
| 2026-04-20 17:32 | 26.91443 | 35.63514 | 37851 ft | 403 kts | 303° |
| 2026-04-20 17:32 | 26.95322 | 35.58966 | 37851 ft | 403 kts | 303° |
| 2026-04-20 17:33 | 26.99198 | 35.54416 | 37853 ft | 403 kts | 303° |
| 2026-04-20 17:33 | 27.03046 | 35.49896 | 37925 ft | 403 kts | 303° |
| 2026-04-20 17:34 | 27.06917 | 35.45342 | 37852 ft | 404 kts | 303° |
| 2026-04-20 17:34 | 27.10792 | 35.40779 | 37853 ft | 404 kts | 303° |
| 2026-04-20 17:35 | 27.14665 | 35.36214 | 37855 ft | 404 kts | 303° |
| 2026-04-20 17:35 | 27.18535 | 35.31647 | 37856 ft | 404 kts | 303° |
| 2026-04-20 17:36 | 27.22406 | 35.27075 | 37856 ft | 404 kts | 303° |
| 2026-04-20 17:36 | 27.26276 | 35.22498 | 37859 ft | 404 kts | 303° |
| 2026-04-20 17:37 | 27.30146 | 35.17916 | 37858 ft | 404 kts | 303° |
| 2026-04-20 17:37 | 27.34013 | 35.13334 | 37859 ft | 404 kts | 303° |
| 2026-04-20 17:38 | 27.37879 | 35.08748 | 37859 ft | 404 kts | 303° |
| 2026-04-20 17:38 | 27.41744 | 35.04156 | 37876 ft | 404 kts | 303° |
| 2026-04-20 17:39 | 27.45623 | 34.99540 | 37859 ft | 407 kts | 303° |
| 2026-04-20 17:39 | 27.49491 | 34.94935 | 37856 ft | 407 kts | 303° |
| 2026-04-20 17:40 | 27.53432 | 34.90335 | 37856 ft | 411 kts | 306° |
| 2026-04-20 17:40 | 27.57636 | 34.85933 | 37856 ft | 413 kts | 307° |
| 2026-04-20 17:41 | 27.61882 | 34.81567 | 37853 ft | 413 kts | 307° |
| 2026-04-20 17:41 | 27.66087 | 34.77172 | 37854 ft | 412 kts | 306° |
| 2026-04-20 17:42 | 27.70265 | 34.72752 | 37869 ft | 412 kts | 306° |
| 2026-04-20 17:42 | 27.74440 | 34.68319 | 37855 ft | 412 kts | 306° |
| 2026-04-20 17:43 | 27.78620 | 34.63878 | 37868 ft | 413 kts | 307° |
| 2026-04-20 17:43 | 27.82816 | 34.59416 | 37855 ft | 415 kts | 307° |
| 2026-04-20 17:44 | 27.86996 | 34.54972 | 37856 ft | 415 kts | 307° |
| 2026-04-20 17:44 | 27.91200 | 34.50497 | 37856 ft | 415 kts | 307° |
| 2026-04-20 17:45 | 27.95405 | 34.46014 | 37863 ft | 415 kts | 307° |
| 2026-04-20 17:45 | 27.99561 | 34.41488 | 37860 ft | 411 kts | 303° |
| 2026-04-20 17:46 | 28.03252 | 34.36606 | 37860 ft | 408 kts | 301° |
| 2026-04-20 17:46 | 28.06849 | 34.31648 | 37854 ft | 407 kts | 301° |
| 2026-04-20 17:47 | 28.10424 | 34.26672 | 37871 ft | 407 kts | 301° |
| 2026-04-20 17:47 | 28.14003 | 34.21700 | 37937 ft | 408 kts | 301° |
| 2026-04-20 17:48 | 28.17606 | 34.16695 | 37908 ft | 411 kts | 302° |
| 2026-04-20 17:48 | 28.21202 | 34.11702 | 37899 ft | 411 kts | 302° |
| 2026-04-20 17:49 | 28.24814 | 34.06682 | 37942 ft | 411 kts | 301° |
| 2026-04-20 17:49 | 28.28419 | 34.01658 | 37939 ft | 410 kts | 301° |
| 2026-04-20 17:50 | 28.32023 | 33.96633 | 37950 ft | 411 kts | 301° |
| 2026-04-20 17:50 | 28.35636 | 33.91585 | 37946 ft | 413 kts | 301° |
| 2026-04-20 17:51 | 28.39271 | 33.86504 | 37960 ft | 414 kts | 302° |
| 2026-04-20 17:51 | 28.42902 | 33.81429 | 37959 ft | 414 kts | 301° |
| 2026-04-20 17:52 | 28.46529 | 33.76354 | 37950 ft | 413 kts | 301° |
| 2026-04-20 17:52 | 28.50149 | 33.71284 | 37936 ft | 413 kts | 301° |
| 2026-04-20 17:53 | 28.53741 | 33.66238 | 38008 ft | 415 kts | 302° |
| 2026-04-20 17:53 | 28.57392 | 33.61123 | 37970 ft | 419 kts | 302° |
| 2026-04-20 17:54 | 28.60456 | 33.56822 | 37945 ft | 421 kts | 302° |
| 2026-04-20 17:54 | 28.64140 | 33.51630 | 37966 ft | 421 kts | 302° |
| 2026-04-20 17:55 | 28.67814 | 33.46455 | 37960 ft | 420 kts | 302° |
| 2026-04-20 17:55 | 28.71478 | 33.41274 | 37974 ft | 420 kts | 302° |
| 2026-04-20 17:56 | 28.75149 | 33.36088 | 37971 ft | 420 kts | 302° |
| 2026-04-20 17:56 | 28.78819 | 33.30899 | 37971 ft | 420 kts | 302° |
| 2026-04-20 17:57 | 28.82480 | 33.25713 | 37964 ft | 420 kts | 302° |
| 2026-04-20 17:57 | 28.86138 | 33.20523 | 37970 ft | 420 kts | 302° |
| 2026-04-20 17:58 | 28.89771 | 33.15362 | 37986 ft | 420 kts | 302° |
| 2026-04-20 17:58 | 28.93424 | 33.10164 | 37973 ft | 420 kts | 302° |
| 2026-04-20 17:59 | 28.97083 | 33.04953 | 37969 ft | 421 kts | 302° |
| 2026-04-20 17:59 | 29.00740 | 32.99739 | 37977 ft | 421 kts | 302° |
| 2026-04-20 18:00 | 29.04396 | 32.94519 | 37977 ft | 420 kts | 302° |
| 2026-04-20 18:00 | 29.08049 | 32.89299 | 37976 ft | 421 kts | 302° |
| 2026-04-20 18:01 | 29.11694 | 32.84082 | 37977 ft | 419 kts | 302° |
| 2026-04-20 18:01 | 29.15330 | 32.78872 | 37977 ft | 419 kts | 302° |
| 2026-04-20 18:02 | 29.18962 | 32.73659 | 37974 ft | 419 kts | 302° |
| 2026-04-20 18:02 | 29.22591 | 32.68445 | 37979 ft | 419 kts | 301° |
| 2026-04-20 18:03 | 29.26217 | 32.63229 | 37982 ft | 419 kts | 301° |
| 2026-04-20 18:03 | 29.29852 | 32.57993 | 37985 ft | 420 kts | 302° |
| 2026-04-20 18:04 | 29.33446 | 32.52765 | 37983 ft | 421 kts | 302° |
| 2026-04-20 18:04 | 29.37061 | 32.47480 | 37992 ft | 423 kts | 302° |
| 2026-04-20 18:05 | 29.42514 | 32.39514 | 38000 ft | 423 kts | 302° |
| 2026-04-20 18:05 | 29.46144 | 32.34207 | 38002 ft | 423 kts | 302° |
| 2026-04-20 18:06 | 29.49780 | 32.28886 | 38006 ft | 424 kts | 302° |
| 2026-04-20 18:06 | 29.53420 | 32.23551 | 37999 ft | 424 kts | 302° |
| 2026-04-20 18:07 | 29.57065 | 32.18206 | 38006 ft | 424 kts | 302° |
| 2026-04-20 18:07 | 29.60703 | 32.12860 | 38007 ft | 424 kts | 302° |
| 2026-04-20 18:08 | 29.64331 | 32.07520 | 38008 ft | 424 kts | 302° |
| 2026-04-20 18:08 | 29.67957 | 32.02176 | 38007 ft | 423 kts | 302° |
| 2026-04-20 18:09 | 29.71573 | 31.96841 | 38007 ft | 423 kts | 302° |
| 2026-04-20 18:09 | 29.75188 | 31.91502 | 38054 ft | 423 kts | 302° |
| 2026-04-20 18:10 | 29.78775 | 31.86194 | 38008 ft | 423 kts | 302° |
| 2026-04-20 18:10 | 29.82305 | 31.80780 | 38009 ft | 422 kts | 300° |
| 2026-04-20 18:11 | 29.85763 | 31.75327 | 38004 ft | 421 kts | 300° |
| 2026-04-20 18:11 | 29.89703 | 31.70263 | 38002 ft | 431 kts | 312° |
| 2026-04-20 18:12 | 29.94849 | 31.66480 | 38002 ft | 450 kts | 327° |
| 2026-04-20 18:12 | 29.97841 | 31.65270 | 38000 ft | 462 kts | 336° |
| 2026-04-20 18:12 | 30.01018 | 31.64502 | 37998 ft | 468 kts | 340° |
| 2026-04-20 18:13 | 30.07482 | 31.63324 | 38039 ft | 472 kts | 342° |
| 2026-04-20 18:13 | 30.13997 | 31.62234 | 38018 ft | 473 kts | 342° |
| 2026-04-20 18:14 | 30.20508 | 31.61106 | 38014 ft | 473 kts | 341° |
| 2026-04-20 18:14 | 30.27020 | 31.59944 | 38019 ft | 473 kts | 341° |
| 2026-04-20 18:15 | 30.33522 | 31.58770 | 38036 ft | 473 kts | 342° |
| 2026-04-20 18:15 | 30.40032 | 31.57593 | 38018 ft | 474 kts | 342° |
| 2026-04-20 18:16 | 30.46549 | 31.56416 | 38018 ft | 474 kts | 342° |
| 2026-04-20 18:16 | 30.53020 | 31.55246 | 38020 ft | 474 kts | 342° |
| 2026-04-20 18:17 | 30.59535 | 31.54066 | 38043 ft | 474 kts | 342° |
| 2026-04-20 18:17 | 30.66071 | 31.52880 | 38023 ft | 476 kts | 342° |
| 2026-04-20 18:18 | 30.72612 | 31.51693 | 38030 ft | 475 kts | 342° |
| 2026-04-20 18:18 | 30.79147 | 31.50503 | 38029 ft | 475 kts | 342° |
| 2026-04-20 18:19 | 30.85677 | 31.49312 | 38037 ft | 475 kts | 342° |
| 2026-04-20 18:19 | 30.92208 | 31.48118 | 38025 ft | 476 kts | 342° |
| 2026-04-20 18:20 | 30.98761 | 31.46919 | 38016 ft | 476 kts | 342° |
| 2026-04-20 18:20 | 31.05302 | 31.45721 | 38020 ft | 476 kts | 342° |
| 2026-04-20 18:21 | 31.11796 | 31.44529 | 38035 ft | 476 kts | 342° |
| 2026-04-20 18:21 | 31.18340 | 31.43327 | 38029 ft | 476 kts | 342° |
| 2026-04-20 18:22 | 31.24884 | 31.42122 | 38026 ft | 476 kts | 342° |
| 2026-04-20 18:22 | 31.31430 | 31.40920 | 38031 ft | 476 kts | 342° |
| 2026-04-20 18:23 | 31.37982 | 31.39701 | 38034 ft | 477 kts | 342° |
| 2026-04-20 18:23 | 31.44541 | 31.38480 | 38032 ft | 477 kts | 342° |
| 2026-04-20 18:24 | 31.51102 | 31.37260 | 38029 ft | 477 kts | 342° |
| 2026-04-20 18:24 | 31.57669 | 31.36066 | 38028 ft | 479 kts | 344° |
| 2026-04-20 18:25 | 31.64341 | 31.35330 | 38034 ft | 483 kts | 347° |
| 2026-04-20 18:25 | 31.71057 | 31.34762 | 38029 ft | 483 kts | 347° |
| 2026-04-20 18:26 | 31.77710 | 31.34140 | 38020 ft | 483 kts | 347° |
| 2026-04-20 18:26 | 31.84405 | 31.33457 | 38032 ft | 482 kts | 346° |
| 2026-04-20 18:27 | 31.91098 | 31.32750 | 38029 ft | 482 kts | 346° |
| 2026-04-20 18:27 | 31.97782 | 31.32038 | 38034 ft | 482 kts | 346° |
| 2026-04-20 18:28 | 32.04474 | 31.31328 | 38024 ft | 482 kts | 346° |
| 2026-04-20 18:28 | 32.11113 | 31.30627 | 38026 ft | 482 kts | 347° |
| 2026-04-20 18:29 | 32.17795 | 31.29911 | 38026 ft | 482 kts | 346° |
| 2026-04-20 18:29 | 32.24474 | 31.29188 | 38026 ft | 482 kts | 346° |
| 2026-04-20 18:30 | 32.31154 | 31.28468 | 38058 ft | 482 kts | 346° |
| 2026-04-20 18:30 | 32.37831 | 31.27748 | 38023 ft | 482 kts | 347° |
| 2026-04-20 18:31 | 32.44517 | 31.27026 | 38023 ft | 482 kts | 347° |
| 2026-04-20 18:31 | 32.51195 | 31.26304 | 38023 ft | 482 kts | 347° |
| 2026-04-20 18:32 | 32.57745 | 31.25086 | 38023 ft | 469 kts | 336° |
| 2026-04-20 18:32 | 32.63698 | 31.22216 | 38017 ft | 458 kts | 328° |
| 2026-04-20 18:33 | 32.69419 | 31.18914 | 38017 ft | 457 kts | 326° |
| 2026-04-20 18:33 | 32.75068 | 31.15564 | 38018 ft | 457 kts | 326° |
| 2026-04-20 18:34 | 32.80763 | 31.12201 | 38013 ft | 457 kts | 327° |
| 2026-04-20 18:34 | 32.86466 | 31.08851 | 38013 ft | 457 kts | 327° |
| 2026-04-20 18:35 | 32.92176 | 31.05500 | 38015 ft | 457 kts | 327° |
| 2026-04-20 18:35 | 32.97886 | 31.02145 | 38008 ft | 457 kts | 327° |
| 2026-04-20 18:36 | 33.03558 | 30.98807 | 38015 ft | 457 kts | 327° |
| 2026-04-20 18:36 | 33.09264 | 30.95443 | 38005 ft | 457 kts | 327° |
| 2026-04-20 18:37 | 33.14871 | 30.91900 | 38012 ft | 455 kts | 323° |
| 2026-04-20 18:37 | 33.20306 | 30.88048 | 38012 ft | 454 kts | 323° |
| 2026-04-20 18:38 | 33.25744 | 30.84188 | 38010 ft | 455 kts | 323° |
| 2026-04-20 18:38 | 33.31206 | 30.80381 | 38010 ft | 455 kts | 323° |
| 2026-04-20 18:39 | 33.36688 | 30.76588 | 38010 ft | 455 kts | 323° |
| 2026-04-20 18:39 | 33.42170 | 30.72795 | 38010 ft | 456 kts | 324° |
| 2026-04-20 18:40 | 33.47636 | 30.69004 | 38008 ft | 456 kts | 324° |
| 2026-04-20 18:40 | 33.53130 | 30.65187 | 38007 ft | 456 kts | 324° |
| 2026-04-20 18:41 | 33.58619 | 30.61367 | 38007 ft | 456 kts | 324° |
| 2026-04-20 18:41 | 33.64109 | 30.57540 | 38007 ft | 456 kts | 324° |
| 2026-04-20 18:42 | 33.69598 | 30.53708 | 38005 ft | 456 kts | 324° |
| 2026-04-20 18:42 | 33.75097 | 30.49864 | 38004 ft | 457 kts | 324° |
| 2026-04-20 18:43 | 33.80592 | 30.46018 | 38004 ft | 457 kts | 324° |
| 2026-04-20 18:43 | 33.85158 | 30.42817 | 38004 ft | 457 kts | 324° |
| 2026-04-20 18:44 | 33.90652 | 30.38960 | 38006 ft | 457 kts | 324° |
| 2026-04-20 18:44 | 33.96132 | 30.35107 | 38014 ft | 456 kts | 324° |
| 2026-04-20 18:45 | 34.01614 | 30.31246 | 38002 ft | 456 kts | 324° |
| 2026-04-20 18:45 | 34.07093 | 30.27382 | 38001 ft | 456 kts | 324° |
| 2026-04-20 18:46 | 34.12573 | 30.23510 | 37999 ft | 456 kts | 324° |
| 2026-04-20 18:46 | 34.18048 | 30.19638 | 37999 ft | 456 kts | 324° |
| 2026-04-20 18:47 | 34.23525 | 30.15757 | 37997 ft | 456 kts | 325° |
| 2026-04-20 18:47 | 34.28960 | 30.11900 | 37999 ft | 456 kts | 325° |
| 2026-04-20 18:48 | 34.34430 | 30.08014 | 37996 ft | 455 kts | 325° |
| 2026-04-20 18:48 | 34.39892 | 30.04127 | 37999 ft | 455 kts | 325° |
| 2026-04-20 18:49 | 34.45232 | 30.00043 | 37994 ft | 451 kts | 318° |
| 2026-04-20 18:49 | 34.49829 | 29.94936 | 37993 ft | 447 kts | 312° |
| 2026-04-20 18:50 | 34.54205 | 29.89583 | 37996 ft | 447 kts | 311° |
| 2026-04-20 18:50 | 34.58545 | 29.84184 | 37992 ft | 447 kts | 311° |
| 2026-04-20 18:51 | 34.62883 | 29.78798 | 38000 ft | 446 kts | 311° |
| 2026-04-20 18:51 | 34.67227 | 29.73417 | 37996 ft | 446 kts | 311° |
| 2026-04-20 18:52 | 34.71539 | 29.68074 | 37992 ft | 445 kts | 311° |
| 2026-04-20 18:52 | 34.75877 | 29.62691 | 37992 ft | 445 kts | 311° |
| 2026-04-20 18:53 | 34.80212 | 29.57302 | 37992 ft | 445 kts | 311° |
| 2026-04-20 18:53 | 34.84546 | 29.51904 | 38016 ft | 445 kts | 311° |
| 2026-04-20 18:54 | 34.88879 | 29.46499 | 37991 ft | 446 kts | 311° |
| 2026-04-20 18:54 | 34.93210 | 29.41089 | 37991 ft | 446 kts | 311° |
| 2026-04-20 18:55 | 34.97511 | 29.35710 | 37988 ft | 446 kts | 311° |
| 2026-04-20 18:55 | 35.02258 | 29.30780 | 37987 ft | 449 kts | 319° |
| 2026-04-20 18:56 | 35.07247 | 29.26169 | 37991 ft | 450 kts | 319° |
| 2026-04-20 18:56 | 35.12274 | 29.21605 | 37987 ft | 449 kts | 319° |
| 2026-04-20 18:57 | 35.17281 | 29.17048 | 37998 ft | 449 kts | 319° |
| 2026-04-20 18:57 | 35.22299 | 29.12456 | 37987 ft | 451 kts | 319° |
| 2026-04-20 18:58 | 35.27287 | 29.07880 | 37988 ft | 451 kts | 319° |
| 2026-04-20 18:58 | 35.32307 | 29.03268 | 37988 ft | 451 kts | 319° |
| 2026-04-20 18:59 | 35.37324 | 28.98650 | 37985 ft | 451 kts | 319° |
| 2026-04-20 18:59 | 35.42342 | 28.94025 | 37985 ft | 450 kts | 319° |
| 2026-04-20 19:00 | 35.47345 | 28.89406 | 37988 ft | 449 kts | 319° |
| 2026-04-20 19:00 | 35.52345 | 28.84782 | 37982 ft | 450 kts | 319° |
| 2026-04-20 19:01 | 35.57317 | 28.80176 | 37980 ft | 450 kts | 319° |
| 2026-04-20 19:01 | 35.62319 | 28.75537 | 37980 ft | 450 kts | 319° |
| 2026-04-20 19:02 | 35.67319 | 28.70891 | 37980 ft | 450 kts | 319° |
| 2026-04-20 19:02 | 35.72319 | 28.66238 | 37981 ft | 450 kts | 319° |
| 2026-04-20 19:03 | 35.77319 | 28.61577 | 37978 ft | 451 kts | 319° |
| 2026-04-20 19:03 | 35.82331 | 28.56896 | 37974 ft | 452 kts | 319° |
| 2026-04-20 19:04 | 35.87347 | 28.52207 | 37974 ft | 452 kts | 319° |
| 2026-04-20 19:04 | 35.92369 | 28.47503 | 37972 ft | 452 kts | 319° |
| 2026-04-20 19:05 | 35.97347 | 28.42833 | 37971 ft | 452 kts | 319° |
| 2026-04-20 19:05 | 36.02357 | 28.38125 | 37974 ft | 452 kts | 319° |
| 2026-04-20 19:06 | 36.07379 | 28.33396 | 37968 ft | 453 kts | 320° |
| 2026-04-20 19:06 | 36.12394 | 28.28667 | 37966 ft | 453 kts | 319° |
| 2026-04-20 19:07 | 36.17407 | 28.23934 | 37959 ft | 453 kts | 319° |
| 2026-04-20 19:07 | 36.22416 | 28.19196 | 37959 ft | 453 kts | 319° |
| 2026-04-20 19:08 | 36.29893 | 28.12109 | 37962 ft | 453 kts | 319° |
| 2026-04-20 19:09 | 36.34805 | 28.07209 | 37970 ft | 452 kts | 315° |
| 2026-04-20 19:09 | 36.39445 | 28.01958 | 37980 ft | 451 kts | 315° |
| 2026-04-20 19:10 | 36.44037 | 27.96652 | 37960 ft | 451 kts | 314° |
| 2026-04-20 19:10 | 36.48624 | 27.91330 | 37958 ft | 451 kts | 314° |
| 2026-04-20 19:11 | 36.53214 | 27.86006 | 37972 ft | 451 kts | 314° |
| 2026-04-20 19:11 | 36.57802 | 27.80681 | 37966 ft | 451 kts | 314° |
| 2026-04-20 19:12 | 36.62356 | 27.75388 | 37965 ft | 451 kts | 314° |
| 2026-04-20 19:12 | 36.66944 | 27.70045 | 37976 ft | 452 kts | 314° |
| 2026-04-20 19:13 | 36.71545 | 27.64676 | 37975 ft | 453 kts | 314° |
| 2026-04-20 19:13 | 36.76153 | 27.59293 | 37984 ft | 454 kts | 314° |
| 2026-04-20 19:14 | 36.80756 | 27.53906 | 37985 ft | 453 kts | 314° |
| 2026-04-20 19:14 | 36.85356 | 27.48513 | 37983 ft | 453 kts | 314° |
| 2026-04-20 19:15 | 36.89944 | 27.43124 | 37995 ft | 452 kts | 314° |
| 2026-04-20 19:15 | 36.94528 | 27.37730 | 38007 ft | 452 kts | 314° |
| 2026-04-20 19:16 | 36.99078 | 27.32367 | 37999 ft | 453 kts | 314° |
| 2026-04-20 19:16 | 37.03664 | 27.26953 | 37996 ft | 453 kts | 314° |
| 2026-04-20 19:17 | 37.08237 | 27.21545 | 37995 ft | 453 kts | 314° |
| 2026-04-20 19:17 | 37.12816 | 27.16119 | 37995 ft | 453 kts | 314° |
| 2026-04-20 19:18 | 37.17389 | 27.10692 | 37999 ft | 452 kts | 314° |
| 2026-04-20 19:18 | 37.21948 | 27.05272 | 37999 ft | 452 kts | 314° |
| 2026-04-20 19:19 | 37.26512 | 26.99834 | 38001 ft | 452 kts | 314° |
| 2026-04-20 19:19 | 37.31075 | 26.94390 | 38004 ft | 453 kts | 314° |
| 2026-04-20 19:20 | 37.35644 | 26.88930 | 38002 ft | 453 kts | 314° |
| 2026-04-20 19:20 | 37.40175 | 26.83505 | 37998 ft | 453 kts | 314° |
| 2026-04-20 19:21 | 37.44889 | 26.78229 | 38002 ft | 454 kts | 317° |
| 2026-04-20 19:21 | 37.49736 | 26.73120 | 37996 ft | 454 kts | 317° |
| 2026-04-20 19:22 | 37.54564 | 26.67987 | 37996 ft | 454 kts | 317° |
| 2026-04-20 19:22 | 37.59358 | 26.62815 | 38001 ft | 454 kts | 317° |
| 2026-04-20 19:23 | 37.64150 | 26.57610 | 37997 ft | 454 kts | 317° |
| 2026-04-20 19:23 | 37.68934 | 26.52403 | 38000 ft | 454 kts | 317° |
| 2026-04-20 19:24 | 37.73716 | 26.47198 | 38001 ft | 454 kts | 317° |
| 2026-04-20 19:24 | 37.78477 | 26.42022 | 38001 ft | 454 kts | 317° |
| 2026-04-20 19:25 | 37.83261 | 26.36811 | 38016 ft | 454 kts | 317° |
| 2026-04-20 19:25 | 37.88061 | 26.31571 | 38006 ft | 454 kts | 317° |
| 2026-04-20 19:26 | 37.92838 | 26.26333 | 38003 ft | 454 kts | 317° |
| 2026-04-20 19:26 | 37.97576 | 26.21119 | 38003 ft | 454 kts | 317° |
| 2026-04-20 19:27 | 38.02343 | 26.15867 | 38002 ft | 453 kts | 317° |
| 2026-04-20 19:27 | 38.07108 | 26.10613 | 37996 ft | 454 kts | 317° |
| 2026-04-20 19:28 | 38.11876 | 26.05350 | 38007 ft | 454 kts | 317° |
| 2026-04-20 19:28 | 38.16607 | 26.00103 | 37997 ft | 454 kts | 317° |
| 2026-04-20 19:29 | 38.21366 | 25.94819 | 37992 ft | 454 kts | 317° |
| 2026-04-20 19:29 | 38.26133 | 25.89529 | 37989 ft | 454 kts | 317° |
| 2026-04-20 19:30 | 38.31108 | 25.84562 | 37995 ft | 455 kts | 321° |
| 2026-04-20 19:30 | 38.36200 | 25.79762 | 37995 ft | 455 kts | 321° |
| 2026-04-20 19:31 | 38.41266 | 25.74915 | 38000 ft | 455 kts | 321° |
| 2026-04-20 19:31 | 38.46297 | 25.70020 | 37986 ft | 455 kts | 321° |
| 2026-04-20 19:32 | 38.51320 | 25.65100 | 37988 ft | 455 kts | 320° |
| 2026-04-20 19:32 | 38.56307 | 25.60206 | 37984 ft | 454 kts | 321° |
| 2026-04-20 19:33 | 38.61324 | 25.55275 | 37978 ft | 454 kts | 320° |
| 2026-04-20 19:33 | 38.66333 | 25.50347 | 37977 ft | 454 kts | 320° |
| 2026-04-20 19:34 | 38.71342 | 25.45409 | 37982 ft | 455 kts | 321° |
| 2026-04-20 19:34 | 38.75514 | 25.41290 | 37979 ft | 455 kts | 321° |
| 2026-04-20 19:35 | 38.80523 | 25.36336 | 37975 ft | 455 kts | 320° |
| 2026-04-20 19:35 | 38.85525 | 25.31379 | 37969 ft | 454 kts | 321° |
| 2026-04-20 19:36 | 38.90535 | 25.26406 | 37960 ft | 454 kts | 320° |
| 2026-04-20 19:36 | 38.95536 | 25.21432 | 37965 ft | 454 kts | 320° |
| 2026-04-20 19:37 | 39.00502 | 25.16485 | 37968 ft | 454 kts | 320° |
| 2026-04-20 19:37 | 39.05496 | 25.11499 | 37966 ft | 454 kts | 320° |
| 2026-04-20 19:38 | 39.10493 | 25.06503 | 37969 ft | 454 kts | 320° |
| 2026-04-20 19:38 | 39.15449 | 25.01537 | 37966 ft | 454 kts | 320° |
| 2026-04-20 19:39 | 39.20435 | 24.96533 | 37962 ft | 453 kts | 320° |
| 2026-04-20 19:39 | 39.25409 | 24.91531 | 37963 ft | 453 kts | 320° |
| 2026-04-20 19:40 | 39.30380 | 24.86523 | 37964 ft | 454 kts | 320° |
| 2026-04-20 19:40 | 39.35356 | 24.81501 | 37963 ft | 454 kts | 320° |
| 2026-04-20 19:41 | 39.40328 | 24.76473 | 37962 ft | 454 kts | 320° |
| 2026-04-20 19:41 | 39.45297 | 24.71440 | 37960 ft | 453 kts | 320° |
| 2026-04-20 19:42 | 39.50265 | 24.66398 | 37962 ft | 454 kts | 320° |
| 2026-04-20 19:42 | 39.55213 | 24.61367 | 37957 ft | 455 kts | 320° |
| 2026-04-20 19:43 | 39.59353 | 24.57151 | 37958 ft | 455 kts | 320° |
| 2026-04-20 19:43 | 39.65169 | 24.51216 | 37960 ft | 455 kts | 320° |
| 2026-04-20 19:44 | 39.70117 | 24.46156 | 37957 ft | 455 kts | 320° |
| 2026-04-20 19:44 | 39.75088 | 24.41064 | 37972 ft | 455 kts | 320° |
| 2026-04-20 19:45 | 39.80051 | 24.35970 | 37957 ft | 454 kts | 320° |
| 2026-04-20 19:45 | 39.85009 | 24.30872 | 37958 ft | 453 kts | 320° |
| 2026-04-20 19:46 | 39.89953 | 24.25778 | 37960 ft | 453 kts | 320° |
| 2026-04-20 19:46 | 39.94895 | 24.20676 | 37960 ft | 453 kts | 320° |
| 2026-04-20 19:47 | 39.99848 | 24.15553 | 37958 ft | 453 kts | 320° |
| 2026-04-20 19:47 | 40.04753 | 24.10471 | 37958 ft | 453 kts | 320° |
| 2026-04-20 19:48 | 40.09690 | 24.05345 | 37955 ft | 452 kts | 320° |
| 2026-04-20 19:48 | 40.14606 | 24.00232 | 37955 ft | 451 kts | 320° |
| 2026-04-20 19:49 | 40.19523 | 23.95108 | 37955 ft | 451 kts | 320° |
| 2026-04-20 19:49 | 40.24436 | 23.89978 | 37952 ft | 451 kts | 320° |
| 2026-04-20 19:50 | 40.29314 | 23.84875 | 37955 ft | 451 kts | 320° |
| 2026-04-20 19:50 | 40.34216 | 23.79737 | 37952 ft | 451 kts | 320° |
| 2026-04-20 19:51 | 40.39125 | 23.74582 | 37946 ft | 451 kts | 320° |
| 2026-04-20 19:51 | 40.44022 | 23.69430 | 37949 ft | 450 kts | 320° |
| 2026-04-20 19:52 | 40.48886 | 23.64302 | 37949 ft | 450 kts | 320° |
| 2026-04-20 19:52 | 40.53770 | 23.59144 | 37967 ft | 450 kts | 320° |
| 2026-04-20 19:53 | 40.58652 | 23.53978 | 37947 ft | 449 kts | 320° |
| 2026-04-20 19:53 | 40.63520 | 23.48816 | 37944 ft | 449 kts | 319° |
| 2026-04-20 19:54 | 40.68380 | 23.43653 | 37944 ft | 449 kts | 319° |
| 2026-04-20 19:54 | 40.73229 | 23.38491 | 37944 ft | 447 kts | 319° |
| 2026-04-20 19:55 | 40.78033 | 23.33369 | 37943 ft | 446 kts | 319° |
| 2026-04-20 19:55 | 40.82868 | 23.28203 | 37944 ft | 446 kts | 319° |
| 2026-04-20 19:56 | 40.87697 | 23.23032 | 37938 ft | 447 kts | 319° |
| 2026-04-20 19:56 | 40.92529 | 23.17848 | 37938 ft | 447 kts | 319° |
| 2026-04-20 19:57 | 40.97356 | 23.12661 | 37941 ft | 447 kts | 319° |
| 2026-04-20 19:57 | 41.02150 | 23.07499 | 37937 ft | 448 kts | 319° |
| 2026-04-20 19:58 | 41.06991 | 23.02276 | 37964 ft | 449 kts | 319° |
| 2026-04-20 19:58 | 41.11473 | 22.96578 | 37944 ft | 445 kts | 310° |
| 2026-04-20 19:59 | 41.15532 | 22.90369 | 37944 ft | 445 kts | 309° |
| 2026-04-20 19:59 | 41.19526 | 22.84075 | 37949 ft | 445 kts | 309° |
| 2026-04-20 20:00 | 41.23482 | 22.77818 | 37936 ft | 445 kts | 309° |
| 2026-04-20 20:00 | 41.27531 | 22.71566 | 37949 ft | 446 kts | 311° |
| 2026-04-20 20:01 | 41.31731 | 22.65487 | 37951 ft | 446 kts | 311° |
| 2026-04-20 20:01 | 41.35939 | 22.59419 | 37959 ft | 446 kts | 311° |
| 2026-04-20 20:02 | 41.40096 | 22.53353 | 37948 ft | 446 kts | 311° |
| 2026-04-20 20:02 | 41.44267 | 22.47218 | 37952 ft | 446 kts | 310° |
| 2026-04-20 20:03 | 41.48427 | 22.41083 | 37952 ft | 446 kts | 310° |
| 2026-04-20 20:03 | 41.52597 | 22.34921 | 37952 ft | 447 kts | 310° |
| 2026-04-20 20:04 | 41.56768 | 22.28747 | 37952 ft | 447 kts | 310° |
| 2026-04-20 20:04 | 41.60898 | 22.22621 | 37953 ft | 447 kts | 310° |
| 2026-04-20 20:05 | 41.65060 | 22.16436 | 37959 ft | 446 kts | 310° |
| 2026-04-20 20:05 | 41.69203 | 22.10267 | 37956 ft | 445 kts | 310° |
| 2026-04-20 20:06 | 41.73335 | 22.04099 | 37954 ft | 444 kts | 310° |
| 2026-04-20 20:06 | 41.77435 | 21.97966 | 37959 ft | 444 kts | 310° |
| 2026-04-20 20:07 | 41.81560 | 21.91785 | 37964 ft | 445 kts | 310° |
| 2026-04-20 20:07 | 41.85680 | 21.85597 | 37964 ft | 444 kts | 310° |
| 2026-04-20 20:08 | 41.89805 | 21.79390 | 37973 ft | 445 kts | 310° |
| 2026-04-20 20:08 | 41.93897 | 21.73219 | 37964 ft | 445 kts | 309° |
| 2026-04-20 20:09 | 41.98013 | 21.66997 | 37968 ft | 446 kts | 309° |
| 2026-04-20 20:09 | 42.02132 | 21.60759 | 37966 ft | 445 kts | 309° |
| 2026-04-20 20:10 | 42.06244 | 21.54517 | 37971 ft | 445 kts | 309° |
| 2026-04-20 20:10 | 42.10356 | 21.48263 | 37982 ft | 445 kts | 309° |
| 2026-04-20 20:11 | 42.14459 | 21.42011 | 37978 ft | 445 kts | 309° |
| 2026-04-20 20:11 | 42.18519 | 21.35771 | 37985 ft | 445 kts | 309° |
| 2026-04-20 20:12 | 42.22532 | 21.29388 | 37985 ft | 445 kts | 308° |
| 2026-04-20 20:12 | 42.26526 | 21.22990 | 37987 ft | 446 kts | 308° |
| 2026-04-20 20:13 | 42.32540 | 21.13388 | 37992 ft | 446 kts | 308° |
| 2026-04-20 20:13 | 42.36534 | 21.07012 | 37990 ft | 447 kts | 308° |
| 2026-04-20 20:14 | 42.40548 | 21.00591 | 37993 ft | 447 kts | 308° |
| 2026-04-20 20:14 | 42.44558 | 20.94162 | 37994 ft | 447 kts | 308° |
| 2026-04-20 20:15 | 42.48569 | 20.87718 | 38000 ft | 447 kts | 308° |
| 2026-04-20 20:15 | 42.52550 | 20.81306 | 37990 ft | 447 kts | 308° |
| 2026-04-20 20:16 | 42.56561 | 20.74832 | 37991 ft | 448 kts | 308° |
| 2026-04-20 20:16 | 42.60580 | 20.68330 | 37986 ft | 449 kts | 308° |
| 2026-04-20 20:17 | 42.64587 | 20.61834 | 37988 ft | 449 kts | 308° |
| 2026-04-20 20:17 | 42.68579 | 20.55349 | 37982 ft | 449 kts | 308° |
| 2026-04-20 20:18 | 42.72590 | 20.48817 | 37985 ft | 449 kts | 308° |
| 2026-04-20 20:18 | 42.76595 | 20.42282 | 37997 ft | 449 kts | 308° |
| 2026-04-20 20:19 | 42.80598 | 20.35733 | 37996 ft | 450 kts | 308° |
| 2026-04-20 20:19 | 42.84578 | 20.29185 | 38367 ft | 451 kts | 306° |
| 2026-04-20 20:20 | 42.86474 | 20.25772 | 38687 ft | 449 kts | 304° |
| 2026-04-20 20:20 | 42.88281 | 20.22300 | 38892 ft | 449 kts | 303° |
| 2026-04-20 20:20 | 42.90057 | 20.18811 | 39052 ft | 449 kts | 303° |
| 2026-04-20 20:20 | 42.91842 | 20.15304 | 39261 ft | 449 kts | 303° |
| 2026-04-20 20:21 | 42.93612 | 20.11858 | 39432 ft | 449 kts | 303° |
| 2026-04-20 20:21 | 42.95417 | 20.08380 | 39629 ft | 449 kts | 304° |
| 2026-04-20 20:21 | 42.97232 | 20.04905 | 39776 ft | 449 kts | 304° |
| 2026-04-20 20:21 | 42.99052 | 20.01432 | 39936 ft | 450 kts | 304° |
| 2026-04-20 20:22 | 43.02712 | 19.94455 | 39997 ft | 452 kts | 304° |
| 2026-04-20 20:22 | 43.06367 | 19.87470 | 40000 ft | 452 kts | 304° |
| 2026-04-20 20:23 | 43.09403 | 19.81652 | 40000 ft | 452 kts | 304° |
| 2026-04-20 20:23 | 43.13643 | 19.73504 | 40004 ft | 451 kts | 304° |
| 2026-04-20 20:24 | 43.16692 | 19.67631 | 40005 ft | 450 kts | 304° |
| 2026-04-20 20:24 | 43.20317 | 19.60632 | 40001 ft | 450 kts | 304° |
| 2026-04-20 20:25 | 43.23919 | 19.53661 | 40006 ft | 450 kts | 304° |
| 2026-04-20 20:25 | 43.27538 | 19.46642 | 40005 ft | 450 kts | 304° |
| 2026-04-20 20:26 | 43.31147 | 19.39626 | 40005 ft | 449 kts | 304° |
| 2026-04-20 20:26 | 43.34747 | 19.32610 | 40015 ft | 449 kts | 303° |
| 2026-04-20 20:27 | 43.38322 | 19.25625 | 40010 ft | 450 kts | 303° |
| 2026-04-20 20:27 | 43.41935 | 19.18551 | 40009 ft | 450 kts | 303° |
| 2026-04-20 20:28 | 43.45534 | 19.11485 | 40009 ft | 449 kts | 303° |
| 2026-04-20 20:28 | 43.49109 | 19.04451 | 40010 ft | 448 kts | 303° |
| 2026-04-20 20:29 | 43.52664 | 18.97440 | 40012 ft | 449 kts | 303° |
| 2026-04-20 20:29 | 43.56234 | 18.90382 | 40010 ft | 448 kts | 303° |
| 2026-04-20 20:30 | 43.59798 | 18.83318 | 40008 ft | 448 kts | 303° |
| 2026-04-20 20:30 | 43.63349 | 18.76266 | 40023 ft | 447 kts | 303° |
| 2026-04-20 20:31 | 43.66898 | 18.69200 | 40015 ft | 449 kts | 303° |
| 2026-04-20 20:31 | 43.70452 | 18.62103 | 40016 ft | 449 kts | 303° |
| 2026-04-20 20:32 | 43.73979 | 18.55045 | 40018 ft | 449 kts | 303° |
| 2026-04-20 20:32 | 43.77523 | 18.47936 | 40018 ft | 448 kts | 303° |
| 2026-04-20 20:33 | 43.81063 | 18.40820 | 40022 ft | 448 kts | 303° |
| 2026-04-20 20:33 | 43.84597 | 18.33696 | 40021 ft | 448 kts | 303° |
| 2026-04-20 20:34 | 43.88102 | 18.26615 | 40021 ft | 448 kts | 303° |
| 2026-04-20 20:34 | 43.91628 | 18.19473 | 40043 ft | 448 kts | 303° |
| 2026-04-20 20:35 | 43.95157 | 18.12308 | 40008 ft | 449 kts | 303° |
| 2026-04-20 20:35 | 43.98662 | 18.05173 | 40007 ft | 450 kts | 303° |
| 2026-04-20 20:36 | 44.02184 | 17.97987 | 40011 ft | 449 kts | 303° |
| 2026-04-20 20:36 | 44.05699 | 17.90797 | 40012 ft | 449 kts | 303° |
| 2026-04-20 20:37 | 44.09195 | 17.83629 | 40013 ft | 450 kts | 303° |
| 2026-04-20 20:37 | 44.12701 | 17.76422 | 40014 ft | 450 kts | 303° |
| 2026-04-20 20:38 | 44.16208 | 17.69197 | 40018 ft | 449 kts | 303° |
| 2026-04-20 20:38 | 44.19701 | 17.61981 | 40013 ft | 448 kts | 303° |
| 2026-04-20 20:39 | 44.23185 | 17.54764 | 40012 ft | 448 kts | 303° |
| 2026-04-20 20:39 | 44.26641 | 17.47589 | 40014 ft | 449 kts | 303° |
| 2026-04-20 20:40 | 44.30126 | 17.40336 | 40012 ft | 449 kts | 303° |
| 2026-04-20 20:40 | 44.33590 | 17.33110 | 40016 ft | 447 kts | 303° |
| 2026-04-20 20:41 | 44.37033 | 17.25909 | 40013 ft | 447 kts | 303° |
| 2026-04-20 20:41 | 44.40482 | 17.18674 | 40021 ft | 447 kts | 303° |
| 2026-04-20 20:42 | 44.43922 | 17.11445 | 40016 ft | 447 kts | 302° |
| 2026-04-20 20:42 | 44.47356 | 17.04208 | 40007 ft | 446 kts | 302° |
| 2026-04-20 20:43 | 44.50778 | 16.96978 | 40021 ft | 446 kts | 302° |
| 2026-04-20 20:43 | 44.54202 | 16.89724 | 40011 ft | 446 kts | 302° |
| 2026-04-20 20:44 | 44.57607 | 16.82495 | 40008 ft | 447 kts | 302° |
| 2026-04-20 20:44 | 44.61024 | 16.75221 | 40007 ft | 446 kts | 302° |
| 2026-04-20 20:45 | 44.64431 | 16.67950 | 40010 ft | 446 kts | 302° |
| 2026-04-20 20:45 | 44.67833 | 16.60671 | 40010 ft | 446 kts | 302° |
| 2026-04-20 20:46 | 44.71232 | 16.53381 | 40006 ft | 446 kts | 302° |
| 2026-04-20 20:46 | 44.74626 | 16.46083 | 40013 ft | 445 kts | 302° |
| 2026-04-20 20:47 | 44.78009 | 16.38788 | 40007 ft | 445 kts | 302° |
| 2026-04-20 20:47 | 44.81389 | 16.31484 | 40012 ft | 446 kts | 302° |
| 2026-04-20 20:48 | 44.84774 | 16.24149 | 40012 ft | 446 kts | 302° |
| 2026-04-20 20:48 | 44.88154 | 16.16807 | 40005 ft | 446 kts | 302° |
| 2026-04-20 20:49 | 44.91527 | 16.09461 | 40012 ft | 446 kts | 302° |
| 2026-04-20 20:49 | 44.94891 | 16.02115 | 40010 ft | 446 kts | 302° |
| 2026-04-20 20:50 | 44.98253 | 15.94755 | 40018 ft | 446 kts | 302° |
| 2026-04-20 20:50 | 45.01603 | 15.87401 | 40018 ft | 446 kts | 302° |
| 2026-04-20 20:51 | 45.04954 | 15.80026 | 40018 ft | 446 kts | 302° |
| 2026-04-20 20:51 | 45.08304 | 15.72635 | 40027 ft | 446 kts | 302° |
| 2026-04-20 20:52 | 45.11650 | 15.65232 | 40024 ft | 447 kts | 302° |
| 2026-04-20 20:52 | 45.14972 | 15.57867 | 40020 ft | 447 kts | 302° |
| 2026-04-20 20:53 | 45.18307 | 15.50452 | 40019 ft | 446 kts | 302° |
| 2026-04-20 20:53 | 45.21638 | 15.43026 | 40027 ft | 446 kts | 301° |
| 2026-04-20 20:54 | 45.24964 | 15.35590 | 40026 ft | 446 kts | 301° |
| 2026-04-20 20:54 | 45.28280 | 15.28159 | 40029 ft | 446 kts | 301° |
| 2026-04-20 20:55 | 45.31592 | 15.20716 | 40035 ft | 446 kts | 301° |
| 2026-04-20 20:55 | 45.34899 | 15.13266 | 40035 ft | 446 kts | 301° |
| 2026-04-20 20:56 | 45.38203 | 15.05805 | 40030 ft | 446 kts | 301° |
| 2026-04-20 20:56 | 45.41509 | 14.98317 | 40023 ft | 447 kts | 301° |
| 2026-04-20 20:57 | 45.44816 | 14.90808 | 40022 ft | 448 kts | 301° |
| 2026-04-20 20:57 | 45.48137 | 14.83319 | 40023 ft | 447 kts | 302° |
| 2026-04-20 20:58 | 45.51646 | 14.76000 | 40015 ft | 447 kts | 303° |
| 2026-04-20 20:58 | 45.55165 | 14.68774 | 40030 ft | 447 kts | 303° |
| 2026-04-20 20:59 | 45.58679 | 14.61460 | 40022 ft | 447 kts | 303° |
| 2026-04-20 20:59 | 45.62168 | 14.54123 | 40024 ft | 447 kts | 303° |
| 2026-04-20 21:00 | 45.65661 | 14.46743 | 40030 ft | 448 kts | 303° |
| 2026-04-20 21:00 | 45.69155 | 14.39343 | 40026 ft | 450 kts | 303° |
| 2026-04-20 21:01 | 45.72650 | 14.31924 | 40022 ft | 450 kts | 303° |
| 2026-04-20 21:01 | 45.76144 | 14.24490 | 40022 ft | 450 kts | 303° |
| 2026-04-20 21:02 | 45.79628 | 14.17058 | 40034 ft | 449 kts | 303° |
| 2026-04-20 21:02 | 45.83104 | 14.09624 | 40015 ft | 449 kts | 303° |
| 2026-04-20 21:03 | 45.86573 | 14.02182 | 40021 ft | 449 kts | 303° |
| 2026-04-20 21:03 | 45.90041 | 13.94726 | 40010 ft | 449 kts | 302° |
| 2026-04-20 21:04 | 45.93480 | 13.87311 | 40012 ft | 448 kts | 302° |
| 2026-04-20 21:04 | 45.96930 | 13.79854 | 40006 ft | 448 kts | 302° |
| 2026-04-20 21:05 | 46.00373 | 13.72391 | 40005 ft | 448 kts | 302° |
| 2026-04-20 21:05 | 46.03814 | 13.64913 | 40005 ft | 448 kts | 302° |
| 2026-04-20 21:06 | 46.07224 | 13.57408 | 39999 ft | 447 kts | 300° |
| 2026-04-20 21:06 | 46.10249 | 13.49615 | 39999 ft | 445 kts | 297° |
| 2026-04-20 21:07 | 46.13148 | 13.41727 | 39985 ft | 445 kts | 297° |
| 2026-04-20 21:07 | 46.16095 | 13.33867 | 39981 ft | 446 kts | 298° |
| 2026-04-20 21:08 | 46.19080 | 13.26029 | 39977 ft | 445 kts | 298° |
| 2026-04-20 21:08 | 46.22045 | 13.18258 | 39981 ft | 445 kts | 298° |
| 2026-04-20 21:09 | 46.25032 | 13.10405 | 39975 ft | 446 kts | 298° |
| 2026-04-20 21:09 | 46.28010 | 13.02547 | 39978 ft | 446 kts | 298° |
| 2026-04-20 21:10 | 46.30984 | 12.94676 | 39976 ft | 446 kts | 298° |
| 2026-04-20 21:10 | 46.33930 | 12.86857 | 39991 ft | 446 kts | 298° |
| 2026-04-20 21:11 | 46.36895 | 12.78961 | 39994 ft | 445 kts | 298° |
| 2026-04-20 21:11 | 46.39848 | 12.71076 | 39980 ft | 446 kts | 298° |
| 2026-04-20 21:12 | 46.42780 | 12.63222 | 39984 ft | 446 kts | 298° |
| 2026-04-20 21:12 | 46.45724 | 12.55314 | 39970 ft | 446 kts | 298° |
| 2026-04-20 21:13 | 46.48668 | 12.47383 | 39994 ft | 447 kts | 297° |
| 2026-04-20 21:13 | 46.51608 | 12.39433 | 40012 ft | 448 kts | 298° |
| 2026-04-20 21:14 | 46.54555 | 12.31449 | 40018 ft | 448 kts | 298° |
| 2026-04-20 21:14 | 46.57472 | 12.23522 | 40030 ft | 448 kts | 297° |
| 2026-04-20 21:15 | 46.60409 | 12.15514 | 39975 ft | 448 kts | 297° |
| 2026-04-20 21:15 | 46.63333 | 12.07521 | 39973 ft | 447 kts | 297° |
| 2026-04-20 21:16 | 46.66250 | 11.99521 | 39975 ft | 448 kts | 297° |
| 2026-04-20 21:16 | 46.69140 | 11.91569 | 39987 ft | 447 kts | 297° |
| 2026-04-20 21:17 | 46.72044 | 11.83557 | 39988 ft | 447 kts | 297° |
| 2026-04-20 21:17 | 46.74942 | 11.75541 | 39990 ft | 447 kts | 297° |
| 2026-04-20 21:18 | 46.77838 | 11.67502 | 39989 ft | 448 kts | 297° |
| 2026-04-20 21:18 | 46.80710 | 11.59506 | 40014 ft | 448 kts | 297° |
| 2026-04-20 21:19 | 46.83600 | 11.51434 | 40001 ft | 449 kts | 297° |
| 2026-04-20 21:20 | 46.87935 | 11.39294 | 40020 ft | 449 kts | 297° |
| 2026-04-20 21:20 | 46.90329 | 11.32578 | 40034 ft | 448 kts | 297° |
| 2026-04-20 21:21 | 46.93733 | 11.23216 | 40042 ft | 449 kts | 301° |
| 2026-04-20 21:21 | 46.97579 | 11.16027 | 40066 ft | 450 kts | 310° |
| 2026-04-20 21:22 | 47.01793 | 11.09249 | 40071 ft | 450 kts | 311° |
| 2026-04-20 21:22 | 47.06064 | 11.02518 | 40093 ft | 451 kts | 311° |
| 2026-04-20 21:23 | 47.10307 | 10.95800 | 40095 ft | 452 kts | 311° |
| 2026-04-20 21:23 | 47.14572 | 10.88997 | 40108 ft | 452 kts | 311° |
| 2026-04-20 21:24 | 47.18834 | 10.82170 | 40112 ft | 454 kts | 311° |
| 2026-04-20 21:24 | 47.23095 | 10.75328 | 40116 ft | 454 kts | 311° |
| 2026-04-20 21:25 | 47.27322 | 10.68524 | 40118 ft | 454 kts | 311° |
| 2026-04-20 21:25 | 47.31581 | 10.61650 | 40126 ft | 454 kts | 311° |
| 2026-04-20 21:26 | 47.35842 | 10.54757 | 40114 ft | 455 kts | 310° |
| 2026-04-20 21:26 | 47.40182 | 10.48044 | 40115 ft | 456 kts | 317° |
| 2026-04-20 21:27 | 47.45104 | 10.42104 | 40113 ft | 457 kts | 319° |
| 2026-04-20 21:27 | 47.50126 | 10.36318 | 40114 ft | 458 kts | 320° |
| 2026-04-20 21:28 | 47.55160 | 10.30550 | 40135 ft | 458 kts | 320° |
| 2026-04-20 21:28 | 47.60194 | 10.24749 | 40109 ft | 459 kts | 320° |
| 2026-04-20 21:29 | 47.65199 | 10.18951 | 40111 ft | 460 kts | 320° |
| 2026-04-20 21:29 | 47.70236 | 10.13097 | 40108 ft | 460 kts | 320° |
| 2026-04-20 21:30 | 47.75266 | 10.07236 | 40108 ft | 459 kts | 320° |
| 2026-04-20 21:30 | 47.80291 | 10.01368 | 40113 ft | 459 kts | 319° |
| 2026-04-20 21:31 | 47.84464 | 9.96484 | 40104 ft | 460 kts | 319° |
| 2026-04-20 21:31 | 47.90303 | 9.89631 | 40104 ft | 460 kts | 319° |
| 2026-04-20 21:32 | 47.94478 | 9.84721 | 40103 ft | 460 kts | 319° |
| 2026-04-20 21:32 | 47.99490 | 9.78811 | 40098 ft | 460 kts | 319° |
| 2026-04-20 21:33 | 48.04508 | 9.72876 | 40106 ft | 461 kts | 319° |
| 2026-04-20 21:33 | 48.09462 | 9.66783 | 40112 ft | 460 kts | 315° |
| 2026-04-20 21:34 | 48.14078 | 9.60259 | 40105 ft | 460 kts | 314° |
| 2026-04-20 21:34 | 48.18670 | 9.53604 | 40106 ft | 459 kts | 314° |
| 2026-04-20 21:35 | 48.23256 | 9.46920 | 40108 ft | 460 kts | 314° |
| 2026-04-20 21:35 | 48.28583 | 9.39145 | 40119 ft | 460 kts | 314° |
| 2026-04-20 21:36 | 48.32401 | 9.33568 | 40116 ft | 461 kts | 314° |
| 2026-04-20 21:36 | 48.36991 | 9.26847 | 40116 ft | 460 kts | 314° |
| 2026-04-20 21:37 | 48.41575 | 9.20117 | 40118 ft | 460 kts | 314° |
| 2026-04-20 21:37 | 48.46154 | 9.13376 | 40118 ft | 460 kts | 314° |
| 2026-04-20 21:38 | 48.50699 | 9.06669 | 40119 ft | 460 kts | 314° |
| 2026-04-20 21:38 | 48.55259 | 8.99920 | 40128 ft | 459 kts | 314° |
| 2026-04-20 21:39 | 48.59810 | 8.93167 | 40127 ft | 458 kts | 314° |
| 2026-04-20 21:39 | 48.64355 | 8.86403 | 40129 ft | 459 kts | 314° |
| 2026-04-20 21:40 | 48.68867 | 8.79672 | 40130 ft | 459 kts | 314° |
| 2026-04-20 21:40 | 48.73407 | 8.72880 | 40132 ft | 459 kts | 314° |
| 2026-04-20 21:41 | 48.77941 | 8.66080 | 40139 ft | 459 kts | 314° |
| 2026-04-20 21:41 | 48.82479 | 8.59255 | 40135 ft | 459 kts | 314° |
| 2026-04-20 21:42 | 48.86984 | 8.52462 | 40132 ft | 459 kts | 314° |
| 2026-04-20 21:42 | 48.91514 | 8.45611 | 40133 ft | 460 kts | 314° |
| 2026-04-20 21:43 | 48.96043 | 8.38743 | 40129 ft | 460 kts | 314° |
| 2026-04-20 21:43 | 49.00565 | 8.31869 | 40145 ft | 460 kts | 314° |
| 2026-04-20 21:44 | 49.05061 | 8.25014 | 40135 ft | 460 kts | 314° |
| 2026-04-20 21:44 | 49.09585 | 8.18099 | 40137 ft | 461 kts | 314° |
| 2026-04-20 21:45 | 49.14107 | 8.11169 | 40144 ft | 461 kts | 314° |
| 2026-04-20 21:45 | 49.18596 | 8.04270 | 40143 ft | 461 kts | 314° |
| 2026-04-20 21:46 | 49.23109 | 7.97315 | 40144 ft | 460 kts | 314° |
| 2026-04-20 21:46 | 49.27611 | 7.90355 | 40150 ft | 461 kts | 314° |
| 2026-04-20 21:47 | 49.32125 | 7.83360 | 40143 ft | 462 kts | 314° |
| 2026-04-20 21:47 | 49.36639 | 7.76346 | 40140 ft | 462 kts | 314° |
| 2026-04-20 21:48 | 49.41125 | 7.69355 | 40139 ft | 462 kts | 314° |
| 2026-04-20 21:48 | 49.45631 | 7.62314 | 40138 ft | 462 kts | 314° |
| 2026-04-20 21:49 | 49.50128 | 7.55268 | 40151 ft | 461 kts | 314° |
| 2026-04-20 21:49 | 49.54623 | 7.48203 | 40162 ft | 462 kts | 314° |
| 2026-04-20 21:50 | 49.59087 | 7.41170 | 40161 ft | 462 kts | 314° |
| 2026-04-20 21:50 | 49.63596 | 7.34044 | 40162 ft | 462 kts | 314° |
| 2026-04-20 21:51 | 49.68083 | 7.26934 | 40162 ft | 462 kts | 314° |
| 2026-04-20 21:51 | 49.72568 | 7.19807 | 40164 ft | 462 kts | 314° |
| 2026-04-20 21:52 | 49.77043 | 7.12676 | 40166 ft | 462 kts | 314° |
| 2026-04-20 21:52 | 49.81490 | 7.05567 | 40159 ft | 463 kts | 314° |
| 2026-04-20 21:53 | 49.85974 | 6.98382 | 40164 ft | 463 kts | 314° |
| 2026-04-20 21:53 | 49.90450 | 6.91187 | 40154 ft | 463 kts | 313° |
| 2026-04-20 21:54 | 49.94923 | 6.83979 | 40154 ft | 464 kts | 313° |
| 2026-04-20 21:54 | 49.99388 | 6.76761 | 40156 ft | 463 kts | 313° |
| 2026-04-20 21:55 | 50.03845 | 6.69536 | 40145 ft | 465 kts | 313° |
| 2026-04-20 21:55 | 50.08323 | 6.62255 | 40160 ft | 466 kts | 313° |
| 2026-04-20 21:56 | 50.12800 | 6.54956 | 40165 ft | 466 kts | 313° |
| 2026-04-20 21:56 | 50.17253 | 6.47625 | 40150 ft | 466 kts | 311° |
| 2026-04-20 21:57 | 50.21019 | 6.39420 | 40170 ft | 465 kts | 303° |
| 2026-04-20 21:57 | 50.24444 | 6.30861 | 40174 ft | 465 kts | 302° |
| 2026-04-20 21:58 | 50.27812 | 6.22229 | 40184 ft | 466 kts | 301° |
| 2026-04-20 21:58 | 50.31188 | 6.13564 | 40184 ft | 467 kts | 302° |
| 2026-04-20 21:59 | 50.34572 | 6.04887 | 40189 ft | 467 kts | 302° |
| 2026-04-20 21:59 | 50.37930 | 5.96263 | 40186 ft | 467 kts | 301° |
| 2026-04-20 22:00 | 50.41302 | 5.87574 | 40201 ft | 466 kts | 301° |
| 2026-04-20 22:00 | 50.44663 | 5.78883 | 40204 ft | 466 kts | 301° |
| 2026-04-20 22:01 | 50.48016 | 5.70181 | 40213 ft | 466 kts | 301° |
| 2026-04-20 22:01 | 50.51367 | 5.61458 | 40218 ft | 466 kts | 301° |
| 2026-04-20 22:02 | 50.54715 | 5.52712 | 40214 ft | 468 kts | 301° |
| 2026-04-20 22:02 | 50.58062 | 5.43939 | 40217 ft | 468 kts | 301° |
| 2026-04-20 22:03 | 50.61405 | 5.35146 | 40221 ft | 468 kts | 301° |
| 2026-04-20 22:03 | 50.64733 | 5.26362 | 40212 ft | 468 kts | 301° |
| 2026-04-20 22:04 | 50.68060 | 5.17554 | 40215 ft | 468 kts | 301° |
| 2026-04-20 22:04 | 50.71387 | 5.08713 | 40216 ft | 468 kts | 301° |
| 2026-04-20 22:05 | 50.74677 | 4.99941 | 40217 ft | 467 kts | 301° |
| 2026-04-20 22:05 | 50.77980 | 4.91104 | 40226 ft | 468 kts | 301° |
| 2026-04-20 22:06 | 50.81288 | 4.82225 | 40218 ft | 469 kts | 301° |
| 2026-04-20 22:06 | 50.84594 | 4.73318 | 40219 ft | 470 kts | 300° |
| 2026-04-20 22:07 | 50.87892 | 4.64404 | 40237 ft | 470 kts | 300° |
| 2026-04-20 22:07 | 50.91188 | 4.55462 | 40238 ft | 469 kts | 300° |
| 2026-04-20 22:08 | 50.94475 | 4.46514 | 40238 ft | 469 kts | 300° |
| 2026-04-20 22:08 | 50.97752 | 4.37563 | 40238 ft | 469 kts | 300° |
| 2026-04-20 22:09 | 51.01023 | 4.28596 | 40238 ft | 469 kts | 300° |
| 2026-04-20 22:09 | 51.04257 | 4.19699 | 40237 ft | 469 kts | 300° |
| 2026-04-20 22:10 | 51.07521 | 4.10690 | 40241 ft | 469 kts | 300° |
| 2026-04-20 22:10 | 51.10778 | 4.01667 | 40242 ft | 469 kts | 300° |
| 2026-04-20 22:11 | 51.14030 | 3.92626 | 40241 ft | 469 kts | 300° |
| 2026-04-20 22:11 | 51.17254 | 3.83629 | 40241 ft | 469 kts | 300° |
| 2026-04-20 22:12 | 51.20492 | 3.74562 | 40239 ft | 469 kts | 300° |
| 2026-04-20 22:12 | 51.23690 | 3.65577 | 40241 ft | 468 kts | 300° |
| 2026-04-20 22:13 | 51.26973 | 3.56586 | 40241 ft | 468 kts | 301° |
| 2026-04-20 22:13 | 51.30315 | 3.47658 | 40245 ft | 469 kts | 301° |
| 2026-04-20 22:14 | 51.33660 | 3.38645 | 40239 ft | 471 kts | 300° |
| 2026-04-20 22:14 | 51.36335 | 3.29140 | 40239 ft | 471 kts | 292° |
| 2026-04-20 22:15 | 51.38697 | 3.19342 | 40244 ft | 471 kts | 291° |
| 2026-04-20 22:15 | 51.41000 | 3.09497 | 40246 ft | 471 kts | 291° |
| 2026-04-20 22:16 | 51.43286 | 2.99731 | 40246 ft | 471 kts | 291° |
| 2026-04-20 22:16 | 51.45588 | 2.89873 | 40246 ft | 471 kts | 291° |
| 2026-04-20 22:17 | 51.47873 | 2.80069 | 40246 ft | 471 kts | 291° |
| 2026-04-20 22:17 | 51.50160 | 2.70211 | 40254 ft | 471 kts | 291° |
| 2026-04-20 22:18 | 51.52435 | 2.60365 | 40254 ft | 471 kts | 291° |
| 2026-04-20 22:18 | 51.54703 | 2.50501 | 40101 ft | 466 kts | 290° |
| 2026-04-20 22:18 | 51.55823 | 2.45619 | 39413 ft | 467 kts | 290° |
| 2026-04-20 22:19 | 51.56818 | 2.41270 | 38658 ft | 470 kts | 290° |
| 2026-04-20 22:19 | 51.57933 | 2.36375 | 37786 ft | 470 kts | 290° |
| 2026-04-20 22:19 | 51.59059 | 2.31435 | 36991 ft | 469 kts | 290° |
| 2026-04-20 22:19 | 51.60177 | 2.26523 | 36251 ft | 467 kts | 290° |
| 2026-04-20 22:20 | 51.61290 | 2.21615 | 35486 ft | 466 kts | 290° |
| 2026-04-20 22:20 | 51.62395 | 2.16727 | 34707 ft | 463 kts | 290° |
| 2026-04-20 22:20 | 51.63488 | 2.11891 | 33917 ft | 461 kts | 290° |
| 2026-04-20 22:20 | 51.64582 | 2.07043 | 32964 ft | 460 kts | 290° |
| 2026-04-20 22:21 | 51.65674 | 2.02173 | 31987 ft | 460 kts | 290° |
| 2026-04-20 22:21 | 51.66758 | 1.97320 | 31013 ft | 460 kts | 290° |
| 2026-04-20 22:21 | 51.67826 | 1.92531 | 29993 ft | 459 kts | 290° |
| 2026-04-20 22:21 | 51.68894 | 1.87736 | 29116 ft | 447 kts | 290° |
| 2026-04-20 22:22 | 51.69919 | 1.83114 | 28165 ft | 427 kts | 291° |
| 2026-04-20 22:22 | 51.70910 | 1.78647 | 27572 ft | 420 kts | 291° |
| 2026-04-20 22:22 | 51.71887 | 1.74230 | 26968 ft | 414 kts | 291° |
| 2026-04-20 22:22 | 51.72850 | 1.69871 | 26397 ft | 408 kts | 291° |
| 2026-04-20 22:23 | 51.73786 | 1.65573 | 25819 ft | 403 kts | 289° |
| 2026-04-20 22:23 | 51.74422 | 1.61183 | 25428 ft | 416 kts | 279° |
| 2026-04-20 22:23 | 51.74468 | 1.56437 | 25288 ft | 428 kts | 269° |
| 2026-04-20 22:23 | 51.74192 | 1.51638 | 25288 ft | 431 kts | 267° |
| 2026-04-20 22:24 | 51.73871 | 1.46827 | 25292 ft | 431 kts | 267° |
| 2026-04-20 22:24 | 51.73549 | 1.42029 | 25286 ft | 429 kts | 267° |
| 2026-04-20 22:24 | 51.73232 | 1.37267 | 25292 ft | 425 kts | 267° |
| 2026-04-20 22:24 | 51.72918 | 1.32538 | 25295 ft | 424 kts | 267° |
| 2026-04-20 22:25 | 51.72605 | 1.27803 | 25298 ft | 423 kts | 267° |
| 2026-04-20 22:25 | 51.72291 | 1.23091 | 25218 ft | 420 kts | 267° |
| 2026-04-20 22:25 | 51.71980 | 1.18456 | 24582 ft | 415 kts | 267° |
| 2026-04-20 22:25 | 51.71668 | 1.13801 | 23330 ft | 413 kts | 267° |
| 2026-04-20 22:26 | 51.71358 | 1.09192 | 21381 ft | 415 kts | 266° |
| 2026-04-20 22:26 | 51.71043 | 1.04541 | 19513 ft | 418 kts | 265° |
| 2026-04-20 22:26 | 51.70729 | 0.99942 | 17831 ft | 416 kts | 266° |
| 2026-04-20 22:27 | 51.70105 | 0.90848 | 15585 ft | 394 kts | 265° |
| 2026-04-20 22:27 | 51.69797 | 0.86452 | 15266 ft | 392 kts | 265° |
| 2026-04-20 22:27 | 51.69491 | 0.82085 | 14818 ft | 391 kts | 265° |
| 2026-04-20 22:27 | 51.69185 | 0.77747 | 14326 ft | 389 kts | 265° |
| 2026-04-20 22:28 | 51.68878 | 0.73420 | 13813 ft | 388 kts | 265° |
| 2026-04-20 22:28 | 51.68576 | 0.69161 | 13326 ft | 386 kts | 265° |
| 2026-04-20 22:28 | 51.68269 | 0.64866 | 12843 ft | 384 kts | 264° |
| 2026-04-20 22:28 | 51.67963 | 0.60610 | 12444 ft | 379 kts | 264° |
| 2026-04-20 22:29 | 51.67665 | 0.56495 | 12196 ft | 362 kts | 265° |
| 2026-04-20 22:29 | 51.67383 | 0.52630 | 11816 ft | 333 kts | 265° |
| 2026-04-20 22:29 | 51.67119 | 0.49046 | 11404 ft | 311 kts | 265° |
| 2026-04-20 22:29 | 51.66877 | 0.45660 | 10877 ft | 296 kts | 265° |
| 2026-04-20 22:30 | 51.66642 | 0.42434 | 10403 ft | 291 kts | 265° |
| 2026-04-20 22:30 | 51.66401 | 0.39176 | 9975 ft | 289 kts | 265° |
| 2026-04-20 22:30 | 51.66163 | 0.35962 | 9599 ft | 288 kts | 265° |
| 2026-04-20 22:30 | 51.65926 | 0.32797 | 9354 ft | 287 kts | 265° |
| 2026-04-20 22:31 | 51.65688 | 0.29596 | 9307 ft | 288 kts | 265° |
| 2026-04-20 22:31 | 51.65449 | 0.26398 | 9312 ft | 287 kts | 265° |
| 2026-04-20 22:31 | 51.65210 | 0.23208 | 9314 ft | 287 kts | 265° |
| 2026-04-20 22:31 | 51.64970 | 0.20027 | 9314 ft | 278 kts | 265° |
| 2026-04-20 22:32 | 51.64746 | 0.17059 | 9322 ft | 260 kts | 265° |
| 2026-04-20 22:32 | 51.64552 | 0.14203 | 9323 ft | 253 kts | 266° |
| 2026-04-20 22:32 | 51.64367 | 0.11388 | 9319 ft | 253 kts | 266° |
| 2026-04-20 22:32 | 51.64182 | 0.08572 | 9317 ft | 253 kts | 266° |
| 2026-04-20 22:33 | 51.63999 | 0.05782 | 9317 ft | 253 kts | 266° |
| 2026-04-20 22:33 | 51.63813 | 0.02961 | 9317 ft | 253 kts | 266° |
| 2026-04-20 22:33 | 51.63624 | 0.00134 | 9317 ft | 253 kts | 266° |
| 2026-04-20 22:33 | 51.63439 | -0.02683 | 9348 ft | 254 kts | 266° |
| 2026-04-20 22:34 | 51.63256 | -0.05518 | 9355 ft | 254 kts | 266° |
| 2026-04-20 22:34 | 51.63074 | -0.08325 | 9362 ft | 254 kts | 266° |
| 2026-04-20 22:34 | 51.62894 | -0.11152 | 9361 ft | 254 kts | 266° |
| 2026-04-20 22:34 | 51.62713 | -0.13978 | 9369 ft | 254 kts | 266° |
| 2026-04-20 22:35 | 51.62532 | -0.16789 | 9367 ft | 254 kts | 266° |
| 2026-04-20 22:35 | 51.62348 | -0.19623 | 9371 ft | 254 kts | 266° |
| 2026-04-20 22:35 | 51.62164 | -0.22457 | 9374 ft | 254 kts | 266° |
| 2026-04-20 22:35 | 51.61979 | -0.25287 | 9373 ft | 254 kts | 266° |
| 2026-04-20 22:36 | 51.61855 | -0.27165 | 9371 ft | 254 kts | 266° |
| 2026-04-20 22:36 | 51.61610 | -0.30919 | 9370 ft | 254 kts | 266° |
| 2026-04-20 22:36 | 51.61424 | -0.33748 | 9318 ft | 254 kts | 265° |
| 2026-04-20 22:36 | 51.61300 | -0.35656 | 9322 ft | 254 kts | 265° |
| 2026-04-20 22:37 | 51.61118 | -0.38449 | 9317 ft | 254 kts | 266° |
| 2026-04-20 22:37 | 51.60932 | -0.41273 | 9317 ft | 254 kts | 265° |
| 2026-04-20 22:37 | 51.60746 | -0.44103 | 9331 ft | 254 kts | 265° |
| 2026-04-20 22:37 | 51.60560 | -0.46925 | 9318 ft | 254 kts | 266° |
| 2026-04-20 22:38 | 51.60373 | -0.49754 | 9317 ft | 254 kts | 266° |
| 2026-04-20 22:38 | 51.60186 | -0.52581 | 9318 ft | 254 kts | 265° |
| 2026-04-20 22:38 | 51.60001 | -0.55386 | 9317 ft | 254 kts | 265° |
| 2026-04-20 22:38 | 51.59814 | -0.58210 | 9324 ft | 254 kts | 265° |
| 2026-04-20 22:39 | 51.59627 | -0.61044 | 9315 ft | 254 kts | 265° |
| 2026-04-20 22:39 | 51.59443 | -0.63836 | 9065 ft | 249 kts | 266° |
| 2026-04-20 22:39 | 51.59257 | -0.66627 | 8617 ft | 252 kts | 266° |
| 2026-04-20 22:39 | 51.59065 | -0.69428 | 8195 ft | 252 kts | 265° |
| 2026-04-20 22:40 | 51.58867 | -0.72236 | 7796 ft | 252 kts | 266° |
| 2026-04-20 22:40 | 51.58665 | -0.75019 | 7440 ft | 251 kts | 266° |
| 2026-04-20 22:40 | 51.58457 | -0.77808 | 7320 ft | 251 kts | 265° |
| 2026-04-20 22:40 | 51.58248 | -0.80589 | 7283 ft | 251 kts | 265° |
| 2026-04-20 22:41 | 51.58038 | -0.83352 | 6981 ft | 248 kts | 265° |
| 2026-04-20 22:41 | 51.57825 | -0.86094 | 6570 ft | 250 kts | 265° |
| 2026-04-20 22:41 | 51.57606 | -0.88875 | 6173 ft | 250 kts | 265° |
| 2026-04-20 22:41 | 51.57059 | -0.91523 | 5744 ft | 254 kts | 238° |
| 2026-04-20 22:42 | 51.55795 | -0.93464 | 5369 ft | 253 kts | 208° |
| 2026-04-20 22:42 | 51.54135 | -0.94274 | 5027 ft | 249 kts | 185° |
| 2026-04-20 22:42 | 51.52419 | -0.94530 | 4673 ft | 246 kts | 181° |
| 2026-04-20 22:42 | 51.50721 | -0.94704 | 4349 ft | 244 kts | 180° |
| 2026-04-20 22:43 | 51.49053 | -0.94525 | 3979 ft | 237 kts | 158° |
| 2026-04-20 22:43 | 51.47693 | -0.93198 | 3639 ft | 225 kts | 131° |
| 2026-04-20 22:43 | 51.46767 | -0.91257 | 3322 ft | 214 kts | 107° |
| 2026-04-20 22:43 | 51.46443 | -0.89049 | 3187 ft | 200 kts | 93° |
| 2026-04-20 22:44 | 51.46366 | -0.86884 | 3058 ft | 189 kts | 88° |
| 2026-04-20 22:44 | 51.46363 | -0.84826 | 2981 ft | 183 kts | 87° |
| 2026-04-20 22:44 | 51.46374 | -0.82786 | 2977 ft | 183 kts | 87° |
| 2026-04-20 22:44 | 51.46379 | -0.80809 | 2979 ft | 168 kts | 87° |
| 2026-04-20 22:45 | 51.46378 | -0.78995 | 2999 ft | 161 kts | 87° |
| 2026-04-20 22:45 | 51.46377 | -0.77198 | 2982 ft | 161 kts | 87° |
| 2026-04-20 22:45 | 51.46380 | -0.75400 | 2984 ft | 161 kts | 86° |
| 2026-04-20 22:45 | 51.46385 | -0.73604 | 2984 ft | 161 kts | 86° |
| 2026-04-20 22:46 | 51.46392 | -0.71826 | 2995 ft | 159 kts | 86° |
| 2026-04-20 22:46 | 51.46399 | -0.70134 | 2895 ft | 146 kts | 86° |
| 2026-04-20 22:46 | 51.46406 | -0.68541 | 2695 ft | 142 kts | 86° |
| 2026-04-20 22:46 | 51.46412 | -0.66961 | 2496 ft | 142 kts | 86° |
| 2026-04-20 22:47 | 51.46417 | -0.65387 | 2300 ft | 140 kts | 86° |
| 2026-04-20 22:47 | 51.46423 | -0.63859 | 2101 ft | 133 kts | 86° |
| 2026-04-20 22:47 | 51.46426 | -0.62425 | 1918 ft | 124 kts | 85° |
| 2026-04-20 22:47 | 51.46432 | -0.61068 | 1764 ft | 123 kts | 86° |
| 2026-04-20 22:48 | 51.46437 | -0.59687 | 1565 ft | 124 kts | 85° |
| 2026-04-20 22:48 | 51.46446 | -0.58300 | 1414 ft | 124 kts | 85° |
| 2026-04-20 22:48 | 51.46449 | -0.56912 | 1257 ft | 125 kts | 87° |
| 2026-04-20 22:48 | 51.46431 | -0.55519 | 1076 ft | 124 kts | 86° |
| 2026-04-20 22:49 | 51.46434 | -0.54128 | 847 ft | 127 kts | 85° |
| 2026-04-20 22:49 | 51.46459 | -0.52717 | 704 ft | 129 kts | 86° |
| 2026-04-20 22:49 | 51.46468 | -0.51276 | 518 ft | 128 kts | 88° |
| 2026-04-20 22:49 | 51.46473 | -0.49870 | 318 ft | 126 kts | 88° |
| 2026-04-20 22:50 | 51.46481 | -0.48457 | 156 ft | 126 kts | 87° |
| 2026-04-20 22:50 | 51.46486 | -0.47089 | 96 ft | 108 kts | 90° |
| 2026-04-20 22:50 | 51.46486 | -0.46334 | 97 ft | 25 kts | 90° |
| 2026-04-20 22:50 | 51.46488 | -0.46073 | 94 ft | 24 kts | 89° |
| 2026-04-20 22:51 | 51.46525 | -0.45811 | 95 ft | 22 kts | 63° |
| 2026-04-20 22:51 | 51.46560 | -0.45704 | 96 ft | 10 kts | 55° |
| 2026-04-20 22:51 | 51.46624 | -0.45660 | 94 ft | 11 kts | 359° |
| 2026-04-20 22:51 | 51.46662 | -0.45752 | 97 ft | 12 kts | 268° |
| 2026-04-20 22:52 | 51.46660 | -0.45911 | 95 ft | 17 kts | 270° |
| 2026-04-20 22:52 | 51.46659 | -0.46119 | 95 ft | 21 kts | 270° |
| 2026-04-20 22:52 | 51.46659 | -0.46306 | 95 ft | 10 kts | 269° |
| 2026-04-20 22:52 | 51.46670 | -0.46402 | 95 ft | 9 kts | 309° |
| 2026-04-20 22:53 | 51.46741 | -0.46418 | 94 ft | 12 kts | 2° |
| 2026-04-20 22:53 | 51.46805 | -0.46457 | 96 ft | 11 kts | 326° |
| 2026-04-20 22:53 | 51.46844 | -0.46498 | 97 ft | 5 kts | 336° |
| 2026-04-20 22:53 | 51.46868 | -0.46485 | 97 ft | 3 kts | 34° |
| 2026-04-20 22:54 | 51.46883 | -0.46465 | 96 ft | 4 kts | 36° |
| 2026-04-20 22:54 | 51.46896 | -0.46435 | 97 ft | 0 kts | 58° |
| 2026-04-20 22:54 | 51.46903 | -0.46418 | 97 ft | 0 kts | 57° |
| 2026-04-20 22:54 | 51.46906 | -0.46412 | 95 ft | 0 kts | 56° |